<?xml version="1.0" encoding="UTF-8" standalone="no" ?>
<gpx xmlns="http://www.topografix.com/GPX/1/1" xmlns:xsi="http://www.w3.org/2001/XMLSchema-instance" xsi:schemaLocation="http://www.topografix.com/GPX/1/1 http://www.topografix.com/GPX/1/1/gpx.xsd" version="1.1" creator="VisuGPX - https://www.visugpx.com">
  <metadata>
    <name>2013-05 Sitifort zorn walsch</name>
    <desc><![CDATA[VTT départ sitifort. Erreur de parcours km 23-24]]></desc>
  </metadata>
  <trk>
    <name><![CDATA[ACTIVE LOG]]></name>
    <trkseg>
      <trkpt lat="48.67434" lon="7.13977">
        <ele>312.085205</ele>
        <time>2013-05-04T10:13:05Z</time>
      </trkpt>
      <trkpt lat="48.67436" lon="7.13978">
        <ele>317.372437</ele>
        <time>2013-05-04T10:14:03Z</time>
      </trkpt>
      <trkpt lat="48.67436" lon="7.13963">
        <ele>315.449829</ele>
        <time>2013-05-04T10:14:10Z</time>
      </trkpt>
      <trkpt lat="48.67427" lon="7.1394">
        <ele>313.527222</ele>
        <time>2013-05-04T10:14:17Z</time>
      </trkpt>
      <trkpt lat="48.67435" lon="7.13932">
        <ele>314.488403</ele>
        <time>2013-05-04T10:14:25Z</time>
      </trkpt>
      <trkpt lat="48.67435" lon="7.13929">
        <ele>313.046509</ele>
        <time>2013-05-04T10:14:29Z</time>
      </trkpt>
      <trkpt lat="48.67422" lon="7.13936">
        <ele>312.565796</ele>
        <time>2013-05-04T10:14:35Z</time>
      </trkpt>
      <trkpt lat="48.67397" lon="7.13964">
        <ele>312.565796</ele>
        <time>2013-05-04T10:14:47Z</time>
      </trkpt>
      <trkpt lat="48.67366" lon="7.13991">
        <ele>314.488403</ele>
        <time>2013-05-04T10:15:06Z</time>
      </trkpt>
      <trkpt lat="48.6736" lon="7.14016">
        <ele>316.411011</ele>
        <time>2013-05-04T10:15:20Z</time>
      </trkpt>
      <trkpt lat="48.67363" lon="7.14019">
        <ele>317.853027</ele>
        <time>2013-05-04T10:15:45Z</time>
      </trkpt>
      <trkpt lat="48.67364" lon="7.14028">
        <ele>315.93042</ele>
        <time>2013-05-04T10:16:02Z</time>
      </trkpt>
      <trkpt lat="48.67368" lon="7.14038">
        <ele>316.891724</ele>
        <time>2013-05-04T10:16:08Z</time>
      </trkpt>
      <trkpt lat="48.67369" lon="7.14067">
        <ele>317.853027</ele>
        <time>2013-05-04T10:16:21Z</time>
      </trkpt>
      <trkpt lat="48.67368" lon="7.14071">
        <ele>318.814331</ele>
        <time>2013-05-04T10:16:23Z</time>
      </trkpt>
      <trkpt lat="48.67354" lon="7.14096">
        <ele>319.775635</ele>
        <time>2013-05-04T10:16:37Z</time>
      </trkpt>
      <trkpt lat="48.6735" lon="7.14176">
        <ele>324.582275</ele>
        <time>2013-05-04T10:17:05Z</time>
      </trkpt>
      <trkpt lat="48.67354" lon="7.14216">
        <ele>321.698364</ele>
        <time>2013-05-04T10:17:19Z</time>
      </trkpt>
      <trkpt lat="48.6736" lon="7.1427">
        <ele>320.256348</ele>
        <time>2013-05-04T10:17:34Z</time>
      </trkpt>
      <trkpt lat="48.67364" lon="7.14304">
        <ele>319.775635</ele>
        <time>2013-05-04T10:17:50Z</time>
      </trkpt>
      <trkpt lat="48.6737" lon="7.14385">
        <ele>320.737061</ele>
        <time>2013-05-04T10:18:02Z</time>
      </trkpt>
      <trkpt lat="48.6737" lon="7.14733">
        <ele>319.295044</ele>
        <time>2013-05-04T10:18:52Z</time>
      </trkpt>
      <trkpt lat="48.67372" lon="7.14886">
        <ele>318.333618</ele>
        <time>2013-05-04T10:19:17Z</time>
      </trkpt>
      <trkpt lat="48.67386" lon="7.15016">
        <ele>319.295044</ele>
        <time>2013-05-04T10:19:53Z</time>
      </trkpt>
      <trkpt lat="48.67397" lon="7.15119">
        <ele>318.814331</ele>
        <time>2013-05-04T10:20:11Z</time>
      </trkpt>
      <trkpt lat="48.67393" lon="7.1517">
        <ele>318.814331</ele>
        <time>2013-05-04T10:20:23Z</time>
      </trkpt>
      <trkpt lat="48.67382" lon="7.1523">
        <ele>319.295044</ele>
        <time>2013-05-04T10:20:33Z</time>
      </trkpt>
      <trkpt lat="48.6736" lon="7.1524">
        <ele>321.217773</ele>
        <time>2013-05-04T10:20:40Z</time>
      </trkpt>
      <trkpt lat="48.673" lon="7.15239">
        <ele>320.256348</ele>
        <time>2013-05-04T10:20:53Z</time>
      </trkpt>
      <trkpt lat="48.67292" lon="7.15243">
        <ele>322.659668</ele>
        <time>2013-05-04T10:20:59Z</time>
      </trkpt>
      <trkpt lat="48.67287" lon="7.15252">
        <ele>323.620972</ele>
        <time>2013-05-04T10:21:12Z</time>
      </trkpt>
      <trkpt lat="48.67286" lon="7.15255">
        <ele>322.659668</ele>
        <time>2013-05-04T10:21:26Z</time>
      </trkpt>
      <trkpt lat="48.67288" lon="7.15255">
        <ele>319.295044</ele>
        <time>2013-05-04T10:21:42Z</time>
      </trkpt>
      <trkpt lat="48.67281" lon="7.1526">
        <ele>320.256348</ele>
        <time>2013-05-04T10:21:51Z</time>
      </trkpt>
      <trkpt lat="48.67277" lon="7.15262">
        <ele>319.295044</ele>
        <time>2013-05-04T10:21:59Z</time>
      </trkpt>
      <trkpt lat="48.6725" lon="7.15282">
        <ele>319.295044</ele>
        <time>2013-05-04T10:22:14Z</time>
      </trkpt>
      <trkpt lat="48.67225" lon="7.15305">
        <ele>320.737061</ele>
        <time>2013-05-04T10:22:27Z</time>
      </trkpt>
      <trkpt lat="48.67205" lon="7.15335">
        <ele>323.140381</ele>
        <time>2013-05-04T10:22:40Z</time>
      </trkpt>
      <trkpt lat="48.67185" lon="7.15359">
        <ele>327.466187</ele>
        <time>2013-05-04T10:22:54Z</time>
      </trkpt>
      <trkpt lat="48.67182" lon="7.15361">
        <ele>327.946777</ele>
        <time>2013-05-04T10:22:56Z</time>
      </trkpt>
      <trkpt lat="48.67173" lon="7.15393">
        <ele>326.504883</ele>
        <time>2013-05-04T10:23:07Z</time>
      </trkpt>
      <trkpt lat="48.67157" lon="7.1544">
        <ele>326.02417</ele>
        <time>2013-05-04T10:23:20Z</time>
      </trkpt>
      <trkpt lat="48.67139" lon="7.15507">
        <ele>326.985596</ele>
        <time>2013-05-04T10:23:37Z</time>
      </trkpt>
      <trkpt lat="48.67122" lon="7.15565">
        <ele>326.504883</ele>
        <time>2013-05-04T10:23:53Z</time>
      </trkpt>
      <trkpt lat="48.67102" lon="7.15623">
        <ele>327.466187</ele>
        <time>2013-05-04T10:24:08Z</time>
      </trkpt>
      <trkpt lat="48.6707" lon="7.15782">
        <ele>326.985596</ele>
        <time>2013-05-04T10:24:39Z</time>
      </trkpt>
      <trkpt lat="48.67045" lon="7.15849">
        <ele>326.02417</ele>
        <time>2013-05-04T10:24:54Z</time>
      </trkpt>
      <trkpt lat="48.67006" lon="7.15906">
        <ele>329.388916</ele>
        <time>2013-05-04T10:25:10Z</time>
      </trkpt>
      <trkpt lat="48.66965" lon="7.15949">
        <ele>331.792114</ele>
        <time>2013-05-04T10:25:26Z</time>
      </trkpt>
      <trkpt lat="48.6693" lon="7.15982">
        <ele>334.676147</ele>
        <time>2013-05-04T10:25:40Z</time>
      </trkpt>
      <trkpt lat="48.66918" lon="7.1599">
        <ele>332.272827</ele>
        <time>2013-05-04T10:25:46Z</time>
      </trkpt>
      <trkpt lat="48.66872" lon="7.16018">
        <ele>334.195435</ele>
        <time>2013-05-04T10:26:01Z</time>
      </trkpt>
      <trkpt lat="48.66836" lon="7.16028">
        <ele>338.040771</ele>
        <time>2013-05-04T10:26:16Z</time>
      </trkpt>
      <trkpt lat="48.66817" lon="7.16018">
        <ele>341.885986</ele>
        <time>2013-05-04T10:26:28Z</time>
      </trkpt>
      <trkpt lat="48.66796" lon="7.1601">
        <ele>344.77002</ele>
        <time>2013-05-04T10:26:41Z</time>
      </trkpt>
      <trkpt lat="48.6678" lon="7.15989">
        <ele>349.095825</ele>
        <time>2013-05-04T10:26:55Z</time>
      </trkpt>
      <trkpt lat="48.66769" lon="7.15967">
        <ele>351.018433</ele>
        <time>2013-05-04T10:27:08Z</time>
      </trkpt>
      <trkpt lat="48.66753" lon="7.15937">
        <ele>349.576538</ele>
        <time>2013-05-04T10:27:27Z</time>
      </trkpt>
      <trkpt lat="48.66747" lon="7.15931">
        <ele>350.537842</ele>
        <time>2013-05-04T10:27:38Z</time>
      </trkpt>
      <trkpt lat="48.66747" lon="7.15931">
        <ele>350.537842</ele>
        <time>2013-05-04T10:27:39Z</time>
      </trkpt>
      <trkpt lat="48.66761" lon="7.15954">
        <ele>352.460571</ele>
        <time>2013-05-04T10:27:51Z</time>
      </trkpt>
      <trkpt lat="48.66736" lon="7.15942">
        <ele>350.537842</ele>
        <time>2013-05-04T10:28:04Z</time>
      </trkpt>
      <trkpt lat="48.66616" lon="7.1587">
        <ele>351.979858</ele>
        <time>2013-05-04T10:28:40Z</time>
      </trkpt>
      <trkpt lat="48.66558" lon="7.159">
        <ele>343.327881</ele>
        <time>2013-05-04T10:29:04Z</time>
      </trkpt>
      <trkpt lat="48.66476" lon="7.15913">
        <ele>351.018433</ele>
        <time>2013-05-04T10:29:29Z</time>
      </trkpt>
      <trkpt lat="48.66443" lon="7.15926">
        <ele>350.537842</ele>
        <time>2013-05-04T10:30:00Z</time>
      </trkpt>
      <trkpt lat="48.6644" lon="7.15936">
        <ele>351.018433</ele>
        <time>2013-05-04T10:30:05Z</time>
      </trkpt>
      <trkpt lat="48.66416" lon="7.15968">
        <ele>353.902588</ele>
        <time>2013-05-04T10:30:16Z</time>
      </trkpt>
      <trkpt lat="48.6642" lon="7.16033">
        <ele>359.189697</ele>
        <time>2013-05-04T10:30:35Z</time>
      </trkpt>
      <trkpt lat="48.66413" lon="7.16097">
        <ele>362.554321</ele>
        <time>2013-05-04T10:30:52Z</time>
      </trkpt>
      <trkpt lat="48.66414" lon="7.16092">
        <ele>362.554321</ele>
        <time>2013-05-04T10:31:19Z</time>
      </trkpt>
      <trkpt lat="48.66409" lon="7.1605">
        <ele>358.228394</ele>
        <time>2013-05-04T10:31:44Z</time>
      </trkpt>
      <trkpt lat="48.66398" lon="7.16038">
        <ele>355.344482</ele>
        <time>2013-05-04T10:31:53Z</time>
      </trkpt>
      <trkpt lat="48.6639" lon="7.16022">
        <ele>354.383179</ele>
        <time>2013-05-04T10:31:58Z</time>
      </trkpt>
      <trkpt lat="48.66385" lon="7.16021">
        <ele>354.86377</ele>
        <time>2013-05-04T10:32:01Z</time>
      </trkpt>
      <trkpt lat="48.66374" lon="7.16029">
        <ele>359.67041</ele>
        <time>2013-05-04T10:32:14Z</time>
      </trkpt>
      <trkpt lat="48.66375" lon="7.16048">
        <ele>359.67041</ele>
        <time>2013-05-04T10:32:26Z</time>
      </trkpt>
      <trkpt lat="48.66365" lon="7.16094">
        <ele>358.708984</ele>
        <time>2013-05-04T10:33:08Z</time>
      </trkpt>
      <trkpt lat="48.66346" lon="7.16085">
        <ele>354.86377</ele>
        <time>2013-05-04T10:34:19Z</time>
      </trkpt>
      <trkpt lat="48.66355" lon="7.16074">
        <ele>351.018433</ele>
        <time>2013-05-04T10:34:39Z</time>
      </trkpt>
      <trkpt lat="48.66347" lon="7.16087">
        <ele>368.322266</ele>
        <time>2013-05-04T10:36:08Z</time>
      </trkpt>
      <trkpt lat="48.66347" lon="7.16129">
        <ele>368.802979</ele>
        <time>2013-05-04T10:36:25Z</time>
      </trkpt>
      <trkpt lat="48.66345" lon="7.16131">
        <ele>368.322266</ele>
        <time>2013-05-04T10:36:27Z</time>
      </trkpt>
      <trkpt lat="48.66331" lon="7.1614">
        <ele>367.360962</ele>
        <time>2013-05-04T10:36:38Z</time>
      </trkpt>
      <trkpt lat="48.66311" lon="7.16158">
        <ele>366.880249</ele>
        <time>2013-05-04T10:36:56Z</time>
      </trkpt>
      <trkpt lat="48.66306" lon="7.16159">
        <ele>365.918945</ele>
        <time>2013-05-04T10:37:01Z</time>
      </trkpt>
      <trkpt lat="48.66301" lon="7.16163">
        <ele>368.322266</ele>
        <time>2013-05-04T10:37:05Z</time>
      </trkpt>
      <trkpt lat="48.66283" lon="7.16173">
        <ele>370.244873</ele>
        <time>2013-05-04T10:37:21Z</time>
      </trkpt>
      <trkpt lat="48.6626" lon="7.16174">
        <ele>368.802979</ele>
        <time>2013-05-04T10:37:44Z</time>
      </trkpt>
      <trkpt lat="48.66256" lon="7.16172">
        <ele>369.764282</ele>
        <time>2013-05-04T10:37:48Z</time>
      </trkpt>
      <trkpt lat="48.66244" lon="7.16159">
        <ele>370.725586</ele>
        <time>2013-05-04T10:38:04Z</time>
      </trkpt>
      <trkpt lat="48.66232" lon="7.16156">
        <ele>372.648193</ele>
        <time>2013-05-04T10:38:17Z</time>
      </trkpt>
      <trkpt lat="48.66226" lon="7.16159">
        <ele>373.609497</ele>
        <time>2013-05-04T10:38:22Z</time>
      </trkpt>
      <trkpt lat="48.66213" lon="7.16166">
        <ele>376.012817</ele>
        <time>2013-05-04T10:38:34Z</time>
      </trkpt>
      <trkpt lat="48.662" lon="7.16176">
        <ele>380.338745</ele>
        <time>2013-05-04T10:38:46Z</time>
      </trkpt>
      <trkpt lat="48.66182" lon="7.16186">
        <ele>380.338745</ele>
        <time>2013-05-04T10:39:02Z</time>
      </trkpt>
      <trkpt lat="48.66176" lon="7.16183">
        <ele>382.261353</ele>
        <time>2013-05-04T10:39:13Z</time>
      </trkpt>
      <trkpt lat="48.66171" lon="7.16178">
        <ele>382.742065</ele>
        <time>2013-05-04T10:39:21Z</time>
      </trkpt>
      <trkpt lat="48.66163" lon="7.1617">
        <ele>384.664795</ele>
        <time>2013-05-04T10:39:35Z</time>
      </trkpt>
      <trkpt lat="48.66149" lon="7.16164">
        <ele>388.990601</ele>
        <time>2013-05-04T10:39:53Z</time>
      </trkpt>
      <trkpt lat="48.66144" lon="7.16163">
        <ele>404.852295</ele>
        <time>2013-05-04T10:40:12Z</time>
      </trkpt>
      <trkpt lat="48.66134" lon="7.16157">
        <ele>405.813721</ele>
        <time>2013-05-04T10:40:35Z</time>
      </trkpt>
      <trkpt lat="48.66138" lon="7.16159">
        <ele>401.487793</ele>
        <time>2013-05-04T10:41:45Z</time>
      </trkpt>
      <trkpt lat="48.6613" lon="7.16151">
        <ele>402.929688</ele>
        <time>2013-05-04T10:41:57Z</time>
      </trkpt>
      <trkpt lat="48.66111" lon="7.16137">
        <ele>401.487793</ele>
        <time>2013-05-04T10:42:13Z</time>
      </trkpt>
      <trkpt lat="48.66092" lon="7.16131">
        <ele>397.161743</ele>
        <time>2013-05-04T10:42:32Z</time>
      </trkpt>
      <trkpt lat="48.66089" lon="7.16137">
        <ele>397.161743</ele>
        <time>2013-05-04T10:42:42Z</time>
      </trkpt>
      <trkpt lat="48.66089" lon="7.16146">
        <ele>397.642456</ele>
        <time>2013-05-04T10:42:50Z</time>
      </trkpt>
      <trkpt lat="48.66092" lon="7.1619">
        <ele>396.200562</ele>
        <time>2013-05-04T10:43:08Z</time>
      </trkpt>
      <trkpt lat="48.66082" lon="7.16226">
        <ele>399.084351</ele>
        <time>2013-05-04T10:43:21Z</time>
      </trkpt>
      <trkpt lat="48.6607" lon="7.16257">
        <ele>399.084351</ele>
        <time>2013-05-04T10:43:35Z</time>
      </trkpt>
      <trkpt lat="48.66051" lon="7.16304">
        <ele>399.084351</ele>
        <time>2013-05-04T10:43:53Z</time>
      </trkpt>
      <trkpt lat="48.66032" lon="7.16333">
        <ele>401.00708</ele>
        <time>2013-05-04T10:44:06Z</time>
      </trkpt>
      <trkpt lat="48.66007" lon="7.16372">
        <ele>402.929688</ele>
        <time>2013-05-04T10:44:24Z</time>
      </trkpt>
      <trkpt lat="48.65938" lon="7.16516">
        <ele>406.294312</ele>
        <time>2013-05-04T10:45:35Z</time>
      </trkpt>
      <trkpt lat="48.65916" lon="7.16559">
        <ele>408.217041</ele>
        <time>2013-05-04T10:45:56Z</time>
      </trkpt>
      <trkpt lat="48.65911" lon="7.16583">
        <ele>408.217041</ele>
        <time>2013-05-04T10:46:03Z</time>
      </trkpt>
      <trkpt lat="48.65929" lon="7.16617">
        <ele>406.774902</ele>
        <time>2013-05-04T10:46:20Z</time>
      </trkpt>
      <trkpt lat="48.65975" lon="7.16643">
        <ele>406.774902</ele>
        <time>2013-05-04T10:46:39Z</time>
      </trkpt>
      <trkpt lat="48.66022" lon="7.16661">
        <ele>406.774902</ele>
        <time>2013-05-04T10:47:03Z</time>
      </trkpt>
      <trkpt lat="48.66069" lon="7.16683">
        <ele>409.178345</ele>
        <time>2013-05-04T10:47:30Z</time>
      </trkpt>
      <trkpt lat="48.66093" lon="7.16774">
        <ele>415.42688</ele>
        <time>2013-05-04T10:48:09Z</time>
      </trkpt>
      <trkpt lat="48.66083" lon="7.16806">
        <ele>418.310791</ele>
        <time>2013-05-04T10:48:21Z</time>
      </trkpt>
      <trkpt lat="48.66077" lon="7.16823">
        <ele>420.233398</ele>
        <time>2013-05-04T10:48:28Z</time>
      </trkpt>
      <trkpt lat="48.66074" lon="7.16837">
        <ele>421.194824</ele>
        <time>2013-05-04T10:48:33Z</time>
      </trkpt>
      <trkpt lat="48.66054" lon="7.16872">
        <ele>426.482056</ele>
        <time>2013-05-04T10:48:48Z</time>
      </trkpt>
      <trkpt lat="48.66023" lon="7.16906">
        <ele>427.443359</ele>
        <time>2013-05-04T10:49:06Z</time>
      </trkpt>
      <trkpt lat="48.65993" lon="7.16946">
        <ele>429.846558</ele>
        <time>2013-05-04T10:49:25Z</time>
      </trkpt>
      <trkpt lat="48.65965" lon="7.1698">
        <ele>432.730713</ele>
        <time>2013-05-04T10:49:42Z</time>
      </trkpt>
      <trkpt lat="48.65922" lon="7.17026">
        <ele>432.25</ele>
        <time>2013-05-04T10:50:05Z</time>
      </trkpt>
      <trkpt lat="48.65895" lon="7.17062">
        <ele>428.885376</ele>
        <time>2013-05-04T10:50:21Z</time>
      </trkpt>
      <trkpt lat="48.65872" lon="7.17111">
        <ele>433.691895</ele>
        <time>2013-05-04T10:50:41Z</time>
      </trkpt>
      <trkpt lat="48.65816" lon="7.1723">
        <ele>436.095215</ele>
        <time>2013-05-04T10:51:34Z</time>
      </trkpt>
      <trkpt lat="48.65791" lon="7.17254">
        <ele>436.095215</ele>
        <time>2013-05-04T10:51:51Z</time>
      </trkpt>
      <trkpt lat="48.65755" lon="7.17289">
        <ele>436.575928</ele>
        <time>2013-05-04T10:52:17Z</time>
      </trkpt>
      <trkpt lat="48.65705" lon="7.17311">
        <ele>440.421265</ele>
        <time>2013-05-04T10:52:50Z</time>
      </trkpt>
      <trkpt lat="48.65689" lon="7.17295">
        <ele>444.266479</ele>
        <time>2013-05-04T10:53:00Z</time>
      </trkpt>
      <trkpt lat="48.65671" lon="7.17254">
        <ele>450.995605</ele>
        <time>2013-05-04T10:53:19Z</time>
      </trkpt>
      <trkpt lat="48.65642" lon="7.1722">
        <ele>455.802246</ele>
        <time>2013-05-04T10:53:40Z</time>
      </trkpt>
      <trkpt lat="48.65611" lon="7.17184">
        <ele>459.16687</ele>
        <time>2013-05-04T10:54:01Z</time>
      </trkpt>
      <trkpt lat="48.65594" lon="7.17154">
        <ele>458.686157</ele>
        <time>2013-05-04T10:54:17Z</time>
      </trkpt>
      <trkpt lat="48.65573" lon="7.17112">
        <ele>461.57019</ele>
        <time>2013-05-04T10:54:38Z</time>
      </trkpt>
      <trkpt lat="48.65567" lon="7.17107">
        <ele>460.128174</ele>
        <time>2013-05-04T10:54:43Z</time>
      </trkpt>
      <trkpt lat="48.65536" lon="7.17119">
        <ele>462.531372</ele>
        <time>2013-05-04T10:55:01Z</time>
      </trkpt>
      <trkpt lat="48.65509" lon="7.17155">
        <ele>465.896118</ele>
        <time>2013-05-04T10:55:17Z</time>
      </trkpt>
      <trkpt lat="48.6549" lon="7.1722">
        <ele>466.376709</ele>
        <time>2013-05-04T10:55:34Z</time>
      </trkpt>
      <trkpt lat="48.65462" lon="7.17319">
        <ele>467.338135</ele>
        <time>2013-05-04T10:55:54Z</time>
      </trkpt>
      <trkpt lat="48.65442" lon="7.17417">
        <ele>466.376709</ele>
        <time>2013-05-04T10:56:12Z</time>
      </trkpt>
      <trkpt lat="48.65437" lon="7.17578">
        <ele>464.454102</ele>
        <time>2013-05-04T10:56:24Z</time>
      </trkpt>
      <trkpt lat="48.65477" lon="7.17655">
        <ele>463.973389</ele>
        <time>2013-05-04T10:56:35Z</time>
      </trkpt>
      <trkpt lat="48.6552" lon="7.17704">
        <ele>462.531372</ele>
        <time>2013-05-04T10:56:45Z</time>
      </trkpt>
      <trkpt lat="48.6565" lon="7.17773">
        <ele>459.16687</ele>
        <time>2013-05-04T10:57:15Z</time>
      </trkpt>
      <trkpt lat="48.65648" lon="7.17755">
        <ele>455.802246</ele>
        <time>2013-05-04T10:58:20Z</time>
      </trkpt>
      <trkpt lat="48.65677" lon="7.17755">
        <ele>453.398926</ele>
        <time>2013-05-04T10:58:32Z</time>
      </trkpt>
      <trkpt lat="48.65806" lon="7.17758">
        <ele>450.034424</ele>
        <time>2013-05-04T10:59:06Z</time>
      </trkpt>
      <trkpt lat="48.65825" lon="7.17766">
        <ele>449.553711</ele>
        <time>2013-05-04T10:59:18Z</time>
      </trkpt>
      <trkpt lat="48.6583" lon="7.1777">
        <ele>449.553711</ele>
        <time>2013-05-04T10:59:22Z</time>
      </trkpt>
      <trkpt lat="48.65833" lon="7.17775">
        <ele>449.553711</ele>
        <time>2013-05-04T10:59:25Z</time>
      </trkpt>
      <trkpt lat="48.65847" lon="7.1779">
        <ele>450.515015</ele>
        <time>2013-05-04T10:59:37Z</time>
      </trkpt>
      <trkpt lat="48.65872" lon="7.17816">
        <ele>452.437622</ele>
        <time>2013-05-04T11:00:00Z</time>
      </trkpt>
      <trkpt lat="48.65891" lon="7.17831">
        <ele>453.879639</ele>
        <time>2013-05-04T11:00:17Z</time>
      </trkpt>
      <trkpt lat="48.65893" lon="7.17833">
        <ele>453.879639</ele>
        <time>2013-05-04T11:00:19Z</time>
      </trkpt>
      <trkpt lat="48.659" lon="7.17846">
        <ele>456.282959</ele>
        <time>2013-05-04T11:00:32Z</time>
      </trkpt>
      <trkpt lat="48.659" lon="7.17852">
        <ele>456.76355</ele>
        <time>2013-05-04T11:00:36Z</time>
      </trkpt>
      <trkpt lat="48.65903" lon="7.17866">
        <ele>459.16687</ele>
        <time>2013-05-04T11:00:49Z</time>
      </trkpt>
      <trkpt lat="48.65905" lon="7.17874">
        <ele>461.089478</ele>
        <time>2013-05-04T11:01:02Z</time>
      </trkpt>
      <trkpt lat="48.65911" lon="7.17892">
        <ele>461.57019</ele>
        <time>2013-05-04T11:01:19Z</time>
      </trkpt>
      <trkpt lat="48.65923" lon="7.1792">
        <ele>463.973389</ele>
        <time>2013-05-04T11:01:35Z</time>
      </trkpt>
      <trkpt lat="48.65925" lon="7.17928">
        <ele>465.896118</ele>
        <time>2013-05-04T11:01:46Z</time>
      </trkpt>
      <trkpt lat="48.65936" lon="7.17944">
        <ele>468.780029</ele>
        <time>2013-05-04T11:02:07Z</time>
      </trkpt>
      <trkpt lat="48.65989" lon="7.18051">
        <ele>470.702637</ele>
        <time>2013-05-04T11:02:48Z</time>
      </trkpt>
      <trkpt lat="48.65996" lon="7.18158">
        <ele>471.66394</ele>
        <time>2013-05-04T11:03:16Z</time>
      </trkpt>
      <trkpt lat="48.65997" lon="7.18254">
        <ele>471.66394</ele>
        <time>2013-05-04T11:03:46Z</time>
      </trkpt>
      <trkpt lat="48.66013" lon="7.18313">
        <ele>470.702637</ele>
        <time>2013-05-04T11:03:58Z</time>
      </trkpt>
      <trkpt lat="48.66058" lon="7.18402">
        <ele>469.260742</ele>
        <time>2013-05-04T11:04:12Z</time>
      </trkpt>
      <trkpt lat="48.66101" lon="7.1844">
        <ele>470.702637</ele>
        <time>2013-05-04T11:04:26Z</time>
      </trkpt>
      <trkpt lat="48.66103" lon="7.18448">
        <ele>471.66394</ele>
        <time>2013-05-04T11:04:35Z</time>
      </trkpt>
      <trkpt lat="48.661" lon="7.18461">
        <ele>469.260742</ele>
        <time>2013-05-04T11:05:10Z</time>
      </trkpt>
      <trkpt lat="48.6609" lon="7.18511">
        <ele>470.702637</ele>
        <time>2013-05-04T11:05:26Z</time>
      </trkpt>
      <trkpt lat="48.66092" lon="7.18514">
        <ele>472.625366</ele>
        <time>2013-05-04T11:05:47Z</time>
      </trkpt>
      <trkpt lat="48.66097" lon="7.18474">
        <ele>473.106079</ele>
        <time>2013-05-04T11:06:00Z</time>
      </trkpt>
      <trkpt lat="48.66102" lon="7.18447">
        <ele>473.106079</ele>
        <time>2013-05-04T11:06:11Z</time>
      </trkpt>
      <trkpt lat="48.66099" lon="7.1845">
        <ele>473.106079</ele>
        <time>2013-05-04T11:06:14Z</time>
      </trkpt>
      <trkpt lat="48.66091" lon="7.18459">
        <ele>473.106079</ele>
        <time>2013-05-04T11:06:22Z</time>
      </trkpt>
      <trkpt lat="48.66058" lon="7.18495">
        <ele>465.415527</ele>
        <time>2013-05-04T11:06:37Z</time>
      </trkpt>
      <trkpt lat="48.66036" lon="7.18535">
        <ele>462.531372</ele>
        <time>2013-05-04T11:06:53Z</time>
      </trkpt>
      <trkpt lat="48.65963" lon="7.18731">
        <ele>454.360229</ele>
        <time>2013-05-04T11:07:43Z</time>
      </trkpt>
      <trkpt lat="48.65892" lon="7.19126">
        <ele>451.957031</ele>
        <time>2013-05-04T11:08:41Z</time>
      </trkpt>
      <trkpt lat="48.65889" lon="7.19198">
        <ele>445.708374</ele>
        <time>2013-05-04T11:09:00Z</time>
      </trkpt>
      <trkpt lat="48.65895" lon="7.19195">
        <ele>375.051514</ele>
        <time>2013-05-04T11:09:10Z</time>
      </trkpt>
      <trkpt lat="48.659" lon="7.19214">
        <ele>371.68689</ele>
        <time>2013-05-04T11:09:43Z</time>
      </trkpt>
      <trkpt lat="48.65931" lon="7.19377">
        <ele>370.725586</ele>
        <time>2013-05-04T11:10:34Z</time>
      </trkpt>
      <trkpt lat="48.65925" lon="7.19384">
        <ele>370.725586</ele>
        <time>2013-05-04T11:10:37Z</time>
      </trkpt>
      <trkpt lat="48.65947" lon="7.19502">
        <ele>370.725586</ele>
        <time>2013-05-04T11:10:59Z</time>
      </trkpt>
      <trkpt lat="48.65955" lon="7.1956">
        <ele>369.764282</ele>
        <time>2013-05-04T11:11:34Z</time>
      </trkpt>
      <trkpt lat="48.65947" lon="7.19598">
        <ele>369.764282</ele>
        <time>2013-05-04T11:11:43Z</time>
      </trkpt>
      <trkpt lat="48.65934" lon="7.19609">
        <ele>369.764282</ele>
        <time>2013-05-04T11:11:47Z</time>
      </trkpt>
      <trkpt lat="48.65924" lon="7.19619">
        <ele>369.764282</ele>
        <time>2013-05-04T11:11:50Z</time>
      </trkpt>
      <trkpt lat="48.65941" lon="7.1965">
        <ele>354.86377</ele>
        <time>2013-05-04T11:12:04Z</time>
      </trkpt>
      <trkpt lat="48.65945" lon="7.19664">
        <ele>341.405273</ele>
        <time>2013-05-04T11:12:17Z</time>
      </trkpt>
      <trkpt lat="48.65946" lon="7.19667">
        <ele>338.521484</ele>
        <time>2013-05-04T11:12:34Z</time>
      </trkpt>
      <trkpt lat="48.65947" lon="7.19686">
        <ele>323.140381</ele>
        <time>2013-05-04T11:12:45Z</time>
      </trkpt>
      <trkpt lat="48.65955" lon="7.19698">
        <ele>285.648804</ele>
        <time>2013-05-04T11:14:03Z</time>
      </trkpt>
      <trkpt lat="48.65928" lon="7.19689">
        <ele>284.206909</ele>
        <time>2013-05-04T11:14:14Z</time>
      </trkpt>
      <trkpt lat="48.65893" lon="7.1969">
        <ele>284.687622</ele>
        <time>2013-05-04T11:14:29Z</time>
      </trkpt>
      <trkpt lat="48.65891" lon="7.19692">
        <ele>285.168213</ele>
        <time>2013-05-04T11:14:32Z</time>
      </trkpt>
      <trkpt lat="48.65913" lon="7.19692">
        <ele>284.206909</ele>
        <time>2013-05-04T11:14:41Z</time>
      </trkpt>
      <trkpt lat="48.65919" lon="7.19694">
        <ele>283.245605</ele>
        <time>2013-05-04T11:14:44Z</time>
      </trkpt>
      <trkpt lat="48.65919" lon="7.19701">
        <ele>281.322998</ele>
        <time>2013-05-04T11:14:55Z</time>
      </trkpt>
      <trkpt lat="48.65934" lon="7.19728">
        <ele>277.958252</ele>
        <time>2013-05-04T11:15:47Z</time>
      </trkpt>
      <trkpt lat="48.65935" lon="7.1973">
        <ele>277.958252</ele>
        <time>2013-05-04T11:15:48Z</time>
      </trkpt>
      <trkpt lat="48.6593" lon="7.19751">
        <ele>271.229126</ele>
        <time>2013-05-04T11:16:02Z</time>
      </trkpt>
      <trkpt lat="48.65927" lon="7.19756">
        <ele>266.422485</ele>
        <time>2013-05-04T11:16:14Z</time>
      </trkpt>
      <trkpt lat="48.65926" lon="7.19753">
        <ele>264.019287</ele>
        <time>2013-05-04T11:16:23Z</time>
      </trkpt>
      <trkpt lat="48.65922" lon="7.19751">
        <ele>266.903198</ele>
        <time>2013-05-04T11:16:33Z</time>
      </trkpt>
      <trkpt lat="48.65913" lon="7.19748">
        <ele>270.2677</ele>
        <time>2013-05-04T11:16:44Z</time>
      </trkpt>
      <trkpt lat="48.65915" lon="7.1975">
        <ele>269.306519</ele>
        <time>2013-05-04T11:16:46Z</time>
      </trkpt>
      <trkpt lat="48.65926" lon="7.19753">
        <ele>268.825806</ele>
        <time>2013-05-04T11:16:55Z</time>
      </trkpt>
      <trkpt lat="48.65927" lon="7.19759">
        <ele>268.825806</ele>
        <time>2013-05-04T11:16:59Z</time>
      </trkpt>
      <trkpt lat="48.65917" lon="7.19771">
        <ele>272.19043</ele>
        <time>2013-05-04T11:17:12Z</time>
      </trkpt>
      <trkpt lat="48.65913" lon="7.19775">
        <ele>271.709717</ele>
        <time>2013-05-04T11:17:26Z</time>
      </trkpt>
      <trkpt lat="48.6589" lon="7.19786">
        <ele>273.632446</ele>
        <time>2013-05-04T11:18:13Z</time>
      </trkpt>
      <trkpt lat="48.65828" lon="7.19914">
        <ele>277.477661</ele>
        <time>2013-05-04T11:18:54Z</time>
      </trkpt>
      <trkpt lat="48.65772" lon="7.20068">
        <ele>277.958252</ele>
        <time>2013-05-04T11:19:25Z</time>
      </trkpt>
      <trkpt lat="48.65741" lon="7.20066">
        <ele>277.958252</ele>
        <time>2013-05-04T11:19:33Z</time>
      </trkpt>
      <trkpt lat="48.65729" lon="7.20061">
        <ele>277.958252</ele>
        <time>2013-05-04T11:19:36Z</time>
      </trkpt>
      <trkpt lat="48.65693" lon="7.20038">
        <ele>278.438965</ele>
        <time>2013-05-04T11:19:45Z</time>
      </trkpt>
      <trkpt lat="48.65682" lon="7.20055">
        <ele>278.438965</ele>
        <time>2013-05-04T11:19:50Z</time>
      </trkpt>
      <trkpt lat="48.65685" lon="7.20196">
        <ele>280.842407</ele>
        <time>2013-05-04T11:20:21Z</time>
      </trkpt>
      <trkpt lat="48.65666" lon="7.20256">
        <ele>279.400269</ele>
        <time>2013-05-04T11:20:35Z</time>
      </trkpt>
      <trkpt lat="48.65652" lon="7.20294">
        <ele>279.880859</ele>
        <time>2013-05-04T11:20:49Z</time>
      </trkpt>
      <trkpt lat="48.65568" lon="7.20348">
        <ele>275.074463</ele>
        <time>2013-05-04T11:21:51Z</time>
      </trkpt>
      <trkpt lat="48.65556" lon="7.20353">
        <ele>275.074463</ele>
        <time>2013-05-04T11:22:05Z</time>
      </trkpt>
      <trkpt lat="48.65541" lon="7.20354">
        <ele>277.958252</ele>
        <time>2013-05-04T11:22:19Z</time>
      </trkpt>
      <trkpt lat="48.65518" lon="7.20359">
        <ele>279.400269</ele>
        <time>2013-05-04T11:22:42Z</time>
      </trkpt>
      <trkpt lat="48.64972" lon="7.20086">
        <ele>282.765015</ele>
        <time>2013-05-04T11:25:35Z</time>
      </trkpt>
      <trkpt lat="48.64938" lon="7.20077">
        <ele>284.206909</ele>
        <time>2013-05-04T11:25:42Z</time>
      </trkpt>
      <trkpt lat="48.64894" lon="7.20103">
        <ele>288.052246</ele>
        <time>2013-05-04T11:25:54Z</time>
      </trkpt>
      <trkpt lat="48.64888" lon="7.20114">
        <ele>290.455566</ele>
        <time>2013-05-04T11:26:02Z</time>
      </trkpt>
      <trkpt lat="48.64876" lon="7.20114">
        <ele>320.256348</ele>
        <time>2013-05-04T11:27:19Z</time>
      </trkpt>
      <trkpt lat="48.64852" lon="7.20086">
        <ele>315.93042</ele>
        <time>2013-05-04T11:27:32Z</time>
      </trkpt>
      <trkpt lat="48.64832" lon="7.2007">
        <ele>311.604492</ele>
        <time>2013-05-04T11:27:43Z</time>
      </trkpt>
      <trkpt lat="48.64829" lon="7.20069">
        <ele>311.604492</ele>
        <time>2013-05-04T11:27:55Z</time>
      </trkpt>
      <trkpt lat="48.64827" lon="7.20068">
        <ele>310.643066</ele>
        <time>2013-05-04T11:28:11Z</time>
      </trkpt>
      <trkpt lat="48.64807" lon="7.20097">
        <ele>308.239868</ele>
        <time>2013-05-04T11:28:24Z</time>
      </trkpt>
      <trkpt lat="48.64789" lon="7.2012">
        <ele>303.91394</ele>
        <time>2013-05-04T11:28:36Z</time>
      </trkpt>
      <trkpt lat="48.64768" lon="7.20119">
        <ele>305.83667</ele>
        <time>2013-05-04T11:28:45Z</time>
      </trkpt>
      <trkpt lat="48.64756" lon="7.20103">
        <ele>306.317261</ele>
        <time>2013-05-04T11:28:49Z</time>
      </trkpt>
      <trkpt lat="48.6471" lon="7.20046">
        <ele>306.317261</ele>
        <time>2013-05-04T11:29:09Z</time>
      </trkpt>
      <trkpt lat="48.64704" lon="7.20039">
        <ele>306.797852</ele>
        <time>2013-05-04T11:29:12Z</time>
      </trkpt>
      <trkpt lat="48.64767" lon="7.20112">
        <ele>304.394653</ele>
        <time>2013-05-04T11:29:35Z</time>
      </trkpt>
      <trkpt lat="48.64792" lon="7.20142">
        <ele>303.433228</ele>
        <time>2013-05-04T11:29:45Z</time>
      </trkpt>
      <trkpt lat="48.64785" lon="7.20164">
        <ele>303.433228</ele>
        <time>2013-05-04T11:29:55Z</time>
      </trkpt>
      <trkpt lat="48.64774" lon="7.20171">
        <ele>304.875244</ele>
        <time>2013-05-04T11:30:08Z</time>
      </trkpt>
      <trkpt lat="48.6476" lon="7.2016">
        <ele>309.681885</ele>
        <time>2013-05-04T11:30:26Z</time>
      </trkpt>
      <trkpt lat="48.64744" lon="7.20156">
        <ele>314.488403</ele>
        <time>2013-05-04T11:30:47Z</time>
      </trkpt>
      <trkpt lat="48.64728" lon="7.20134">
        <ele>320.256348</ele>
        <time>2013-05-04T11:31:27Z</time>
      </trkpt>
      <trkpt lat="48.64723" lon="7.20122">
        <ele>323.620972</ele>
        <time>2013-05-04T11:31:42Z</time>
      </trkpt>
      <trkpt lat="48.64712" lon="7.20112">
        <ele>326.02417</ele>
        <time>2013-05-04T11:31:57Z</time>
      </trkpt>
      <trkpt lat="48.64698" lon="7.20102">
        <ele>328.427612</ele>
        <time>2013-05-04T11:32:13Z</time>
      </trkpt>
      <trkpt lat="48.64687" lon="7.20101">
        <ele>330.35022</ele>
        <time>2013-05-04T11:32:26Z</time>
      </trkpt>
      <trkpt lat="48.64679" lon="7.201">
        <ele>332.75354</ele>
        <time>2013-05-04T11:32:37Z</time>
      </trkpt>
      <trkpt lat="48.64673" lon="7.20101">
        <ele>334.676147</ele>
        <time>2013-05-04T11:32:52Z</time>
      </trkpt>
      <trkpt lat="48.64664" lon="7.20102">
        <ele>334.676147</ele>
        <time>2013-05-04T11:33:14Z</time>
      </trkpt>
      <trkpt lat="48.64655" lon="7.20102">
        <ele>339.482666</ele>
        <time>2013-05-04T11:33:29Z</time>
      </trkpt>
      <trkpt lat="48.64635" lon="7.20105">
        <ele>343.808594</ele>
        <time>2013-05-04T11:33:59Z</time>
      </trkpt>
      <trkpt lat="48.64623" lon="7.20112">
        <ele>343.808594</ele>
        <time>2013-05-04T11:34:16Z</time>
      </trkpt>
      <trkpt lat="48.64615" lon="7.20115">
        <ele>342.84729</ele>
        <time>2013-05-04T11:34:29Z</time>
      </trkpt>
      <trkpt lat="48.64592" lon="7.2012">
        <ele>351.018433</ele>
        <time>2013-05-04T11:35:22Z</time>
      </trkpt>
      <trkpt lat="48.64586" lon="7.20122">
        <ele>351.499146</ele>
        <time>2013-05-04T11:35:55Z</time>
      </trkpt>
      <trkpt lat="48.64576" lon="7.20128">
        <ele>354.383179</ele>
        <time>2013-05-04T11:36:16Z</time>
      </trkpt>
      <trkpt lat="48.64564" lon="7.20134">
        <ele>358.228394</ele>
        <time>2013-05-04T11:36:33Z</time>
      </trkpt>
      <trkpt lat="48.64552" lon="7.20135">
        <ele>359.67041</ele>
        <time>2013-05-04T11:36:47Z</time>
      </trkpt>
      <trkpt lat="48.64545" lon="7.20139">
        <ele>368.322266</ele>
        <time>2013-05-04T11:37:05Z</time>
      </trkpt>
      <trkpt lat="48.64536" lon="7.20136">
        <ele>367.360962</ele>
        <time>2013-05-04T11:37:17Z</time>
      </trkpt>
      <trkpt lat="48.64508" lon="7.20124">
        <ele>374.090088</ele>
        <time>2013-05-04T11:37:35Z</time>
      </trkpt>
      <trkpt lat="48.64473" lon="7.20113">
        <ele>374.090088</ele>
        <time>2013-05-04T11:37:59Z</time>
      </trkpt>
      <trkpt lat="48.6438" lon="7.20037">
        <ele>383.703247</ele>
        <time>2013-05-04T11:39:05Z</time>
      </trkpt>
      <trkpt lat="48.64377" lon="7.20035">
        <ele>384.184082</ele>
        <time>2013-05-04T11:39:14Z</time>
      </trkpt>
      <trkpt lat="48.64367" lon="7.20032">
        <ele>392.355347</ele>
        <time>2013-05-04T11:39:50Z</time>
      </trkpt>
      <trkpt lat="48.64357" lon="7.20024">
        <ele>397.161743</ele>
        <time>2013-05-04T11:40:06Z</time>
      </trkpt>
      <trkpt lat="48.64355" lon="7.20019">
        <ele>395.719849</ele>
        <time>2013-05-04T11:40:09Z</time>
      </trkpt>
      <trkpt lat="48.6433" lon="7.20004">
        <ele>392.835938</ele>
        <time>2013-05-04T11:40:27Z</time>
      </trkpt>
      <trkpt lat="48.64308" lon="7.1999">
        <ele>391.874512</ele>
        <time>2013-05-04T11:40:45Z</time>
      </trkpt>
      <trkpt lat="48.64282" lon="7.19979">
        <ele>395.719849</ele>
        <time>2013-05-04T11:41:04Z</time>
      </trkpt>
      <trkpt lat="48.64257" lon="7.19965">
        <ele>391.874512</ele>
        <time>2013-05-04T11:41:23Z</time>
      </trkpt>
      <trkpt lat="48.64235" lon="7.19958">
        <ele>394.277954</ele>
        <time>2013-05-04T11:41:46Z</time>
      </trkpt>
      <trkpt lat="48.64225" lon="7.19953">
        <ele>393.797241</ele>
        <time>2013-05-04T11:42:05Z</time>
      </trkpt>
      <trkpt lat="48.64209" lon="7.1995">
        <ele>395.239136</ele>
        <time>2013-05-04T11:42:20Z</time>
      </trkpt>
      <trkpt lat="48.64185" lon="7.19942">
        <ele>398.60376</ele>
        <time>2013-05-04T11:42:40Z</time>
      </trkpt>
      <trkpt lat="48.64178" lon="7.19938">
        <ele>400.045898</ele>
        <time>2013-05-04T11:42:55Z</time>
      </trkpt>
      <trkpt lat="48.64163" lon="7.19929">
        <ele>400.526489</ele>
        <time>2013-05-04T11:43:08Z</time>
      </trkpt>
      <trkpt lat="48.64142" lon="7.19927">
        <ele>404.852295</ele>
        <time>2013-05-04T11:43:29Z</time>
      </trkpt>
      <trkpt lat="48.641" lon="7.19919">
        <ele>412.062256</ele>
        <time>2013-05-04T11:44:16Z</time>
      </trkpt>
      <trkpt lat="48.64079" lon="7.19919">
        <ele>417.349609</ele>
        <time>2013-05-04T11:44:37Z</time>
      </trkpt>
      <trkpt lat="48.64067" lon="7.19917">
        <ele>418.310791</ele>
        <time>2013-05-04T11:44:58Z</time>
      </trkpt>
      <trkpt lat="48.64017" lon="7.19912">
        <ele>415.907471</ele>
        <time>2013-05-04T11:45:36Z</time>
      </trkpt>
      <trkpt lat="48.63998" lon="7.19923">
        <ele>411.100952</ele>
        <time>2013-05-04T11:45:51Z</time>
      </trkpt>
      <trkpt lat="48.63967" lon="7.19954">
        <ele>412.542847</ele>
        <time>2013-05-04T11:46:13Z</time>
      </trkpt>
      <trkpt lat="48.63951" lon="7.19983">
        <ele>417.8302</ele>
        <time>2013-05-04T11:46:28Z</time>
      </trkpt>
      <trkpt lat="48.63915" lon="7.20036">
        <ele>418.310791</ele>
        <time>2013-05-04T11:46:51Z</time>
      </trkpt>
      <trkpt lat="48.63862" lon="7.20074">
        <ele>416.868896</ele>
        <time>2013-05-04T11:47:16Z</time>
      </trkpt>
      <trkpt lat="48.63826" lon="7.20084">
        <ele>417.8302</ele>
        <time>2013-05-04T11:47:32Z</time>
      </trkpt>
      <trkpt lat="48.63799" lon="7.20088">
        <ele>419.752808</ele>
        <time>2013-05-04T11:47:46Z</time>
      </trkpt>
      <trkpt lat="48.63788" lon="7.20093">
        <ele>420.714111</ele>
        <time>2013-05-04T11:47:53Z</time>
      </trkpt>
      <trkpt lat="48.63781" lon="7.20096">
        <ele>422.156006</ele>
        <time>2013-05-04T11:48:05Z</time>
      </trkpt>
      <trkpt lat="48.6376" lon="7.20116">
        <ele>425.040161</ele>
        <time>2013-05-04T11:48:19Z</time>
      </trkpt>
      <trkpt lat="48.63739" lon="7.20145">
        <ele>425.040161</ele>
        <time>2013-05-04T11:48:36Z</time>
      </trkpt>
      <trkpt lat="48.63716" lon="7.20186">
        <ele>427.92395</ele>
        <time>2013-05-04T11:48:57Z</time>
      </trkpt>
      <trkpt lat="48.63681" lon="7.20248">
        <ele>431.769165</ele>
        <time>2013-05-04T11:49:28Z</time>
      </trkpt>
      <trkpt lat="48.63666" lon="7.20272">
        <ele>432.25</ele>
        <time>2013-05-04T11:49:42Z</time>
      </trkpt>
      <trkpt lat="48.63635" lon="7.20307">
        <ele>433.691895</ele>
        <time>2013-05-04T11:50:01Z</time>
      </trkpt>
      <trkpt lat="48.63606" lon="7.20333">
        <ele>435.133911</ele>
        <time>2013-05-04T11:50:17Z</time>
      </trkpt>
      <trkpt lat="48.63583" lon="7.2036">
        <ele>438.017822</ele>
        <time>2013-05-04T11:50:32Z</time>
      </trkpt>
      <trkpt lat="48.6354" lon="7.20431">
        <ele>437.537109</ele>
        <time>2013-05-04T11:51:04Z</time>
      </trkpt>
      <trkpt lat="48.63476" lon="7.20615">
        <ele>438.979126</ele>
        <time>2013-05-04T11:52:21Z</time>
      </trkpt>
      <trkpt lat="48.63446" lon="7.20671">
        <ele>441.382446</ele>
        <time>2013-05-04T11:52:50Z</time>
      </trkpt>
      <trkpt lat="48.63371" lon="7.20861">
        <ele>451.957031</ele>
        <time>2013-05-04T11:54:00Z</time>
      </trkpt>
      <trkpt lat="48.63295" lon="7.20947">
        <ele>457.244263</ele>
        <time>2013-05-04T11:54:42Z</time>
      </trkpt>
      <trkpt lat="48.63254" lon="7.20988">
        <ele>461.57019</ele>
        <time>2013-05-04T11:55:13Z</time>
      </trkpt>
      <trkpt lat="48.63207" lon="7.21045">
        <ele>472.625366</ele>
        <time>2013-05-04T11:55:57Z</time>
      </trkpt>
      <trkpt lat="48.63186" lon="7.21061">
        <ele>478.393188</ele>
        <time>2013-05-04T11:56:14Z</time>
      </trkpt>
      <trkpt lat="48.63136" lon="7.21087">
        <ele>491.370972</ele>
        <time>2013-05-04T11:56:55Z</time>
      </trkpt>
      <trkpt lat="48.6312" lon="7.21096">
        <ele>497.619629</ele>
        <time>2013-05-04T11:57:11Z</time>
      </trkpt>
      <trkpt lat="48.63092" lon="7.21116">
        <ele>502.426147</ele>
        <time>2013-05-04T11:57:35Z</time>
      </trkpt>
      <trkpt lat="48.63078" lon="7.21129">
        <ele>502.906738</ele>
        <time>2013-05-04T11:57:49Z</time>
      </trkpt>
      <trkpt lat="48.63061" lon="7.21163">
        <ele>504.829468</ele>
        <time>2013-05-04T11:58:10Z</time>
      </trkpt>
      <trkpt lat="48.63032" lon="7.21187">
        <ele>502.906738</ele>
        <time>2013-05-04T11:58:30Z</time>
      </trkpt>
      <trkpt lat="48.62994" lon="7.21201">
        <ele>503.868164</ele>
        <time>2013-05-04T11:58:45Z</time>
      </trkpt>
      <trkpt lat="48.62954" lon="7.21211">
        <ele>506.271484</ele>
        <time>2013-05-04T11:59:00Z</time>
      </trkpt>
      <trkpt lat="48.62926" lon="7.21228">
        <ele>506.271484</ele>
        <time>2013-05-04T11:59:15Z</time>
      </trkpt>
      <trkpt lat="48.6291" lon="7.21262">
        <ele>506.271484</ele>
        <time>2013-05-04T11:59:28Z</time>
      </trkpt>
      <trkpt lat="48.62894" lon="7.21332">
        <ele>508.194092</ele>
        <time>2013-05-04T11:59:50Z</time>
      </trkpt>
      <trkpt lat="48.62893" lon="7.21375">
        <ele>507.713501</ele>
        <time>2013-05-04T12:00:05Z</time>
      </trkpt>
      <trkpt lat="48.62893" lon="7.21423">
        <ele>508.674683</ele>
        <time>2013-05-04T12:00:25Z</time>
      </trkpt>
      <trkpt lat="48.62892" lon="7.21427">
        <ele>508.674683</ele>
        <time>2013-05-04T12:00:27Z</time>
      </trkpt>
      <trkpt lat="48.62887" lon="7.21427">
        <ele>509.636108</ele>
        <time>2013-05-04T12:00:31Z</time>
      </trkpt>
      <trkpt lat="48.62877" lon="7.21418">
        <ele>510.116699</ele>
        <time>2013-05-04T12:00:43Z</time>
      </trkpt>
      <trkpt lat="48.62875" lon="7.21417">
        <ele>510.59729</ele>
        <time>2013-05-04T12:00:45Z</time>
      </trkpt>
      <trkpt lat="48.62862" lon="7.21434">
        <ele>514.442627</ele>
        <time>2013-05-04T12:01:00Z</time>
      </trkpt>
      <trkpt lat="48.62853" lon="7.21457">
        <ele>513.962036</ele>
        <time>2013-05-04T12:01:15Z</time>
      </trkpt>
      <trkpt lat="48.62841" lon="7.21474">
        <ele>517.807251</ele>
        <time>2013-05-04T12:01:27Z</time>
      </trkpt>
      <trkpt lat="48.62829" lon="7.21489">
        <ele>518.287842</ele>
        <time>2013-05-04T12:01:43Z</time>
      </trkpt>
      <trkpt lat="48.62823" lon="7.21495">
        <ele>541.84021</ele>
        <time>2013-05-04T12:02:02Z</time>
      </trkpt>
      <trkpt lat="48.62814" lon="7.21509">
        <ele>552.414551</ele>
        <time>2013-05-04T12:02:48Z</time>
      </trkpt>
      <trkpt lat="48.62796" lon="7.21541">
        <ele>544.243652</ele>
        <time>2013-05-04T12:03:05Z</time>
      </trkpt>
      <trkpt lat="48.62779" lon="7.21567">
        <ele>539.917603</ele>
        <time>2013-05-04T12:03:19Z</time>
      </trkpt>
      <trkpt lat="48.62754" lon="7.21592">
        <ele>537.994995</ele>
        <time>2013-05-04T12:03:33Z</time>
      </trkpt>
      <trkpt lat="48.6273" lon="7.21618">
        <ele>537.514282</ele>
        <time>2013-05-04T12:03:48Z</time>
      </trkpt>
      <trkpt lat="48.62708" lon="7.21636">
        <ele>537.514282</ele>
        <time>2013-05-04T12:04:05Z</time>
      </trkpt>
      <trkpt lat="48.62668" lon="7.21656">
        <ele>535.110962</ele>
        <time>2013-05-04T12:04:31Z</time>
      </trkpt>
      <trkpt lat="48.62643" lon="7.21661">
        <ele>536.072388</ele>
        <time>2013-05-04T12:04:46Z</time>
      </trkpt>
      <trkpt lat="48.62617" lon="7.21675">
        <ele>539.917603</ele>
        <time>2013-05-04T12:05:04Z</time>
      </trkpt>
      <trkpt lat="48.62583" lon="7.21728">
        <ele>544.724243</ele>
        <time>2013-05-04T12:05:35Z</time>
      </trkpt>
      <trkpt lat="48.62578" lon="7.21744">
        <ele>546.646851</ele>
        <time>2013-05-04T12:05:47Z</time>
      </trkpt>
      <trkpt lat="48.6257" lon="7.21761">
        <ele>550.492188</ele>
        <time>2013-05-04T12:06:04Z</time>
      </trkpt>
      <trkpt lat="48.62568" lon="7.21774">
        <ele>562.028076</ele>
        <time>2013-05-04T12:06:25Z</time>
      </trkpt>
      <trkpt lat="48.62563" lon="7.2179">
        <ele>573.563965</ele>
        <time>2013-05-04T12:06:47Z</time>
      </trkpt>
      <trkpt lat="48.62552" lon="7.21804">
        <ele>573.563965</ele>
        <time>2013-05-04T12:07:00Z</time>
      </trkpt>
      <trkpt lat="48.62538" lon="7.21831">
        <ele>574.525146</ele>
        <time>2013-05-04T12:07:17Z</time>
      </trkpt>
      <trkpt lat="48.62515" lon="7.21863">
        <ele>574.044434</ele>
        <time>2013-05-04T12:07:39Z</time>
      </trkpt>
      <trkpt lat="48.62497" lon="7.21885">
        <ele>574.044434</ele>
        <time>2013-05-04T12:07:55Z</time>
      </trkpt>
      <trkpt lat="48.62473" lon="7.21907">
        <ele>570.679688</ele>
        <time>2013-05-04T12:08:11Z</time>
      </trkpt>
      <trkpt lat="48.62441" lon="7.21914">
        <ele>568.75708</ele>
        <time>2013-05-04T12:08:27Z</time>
      </trkpt>
      <trkpt lat="48.62418" lon="7.2192">
        <ele>569.237793</ele>
        <time>2013-05-04T12:08:42Z</time>
      </trkpt>
      <trkpt lat="48.62385" lon="7.21914">
        <ele>568.276367</ele>
        <time>2013-05-04T12:08:57Z</time>
      </trkpt>
      <trkpt lat="48.62337" lon="7.21898">
        <ele>572.121826</ele>
        <time>2013-05-04T12:09:14Z</time>
      </trkpt>
      <trkpt lat="48.623" lon="7.21873">
        <ele>572.602539</ele>
        <time>2013-05-04T12:09:32Z</time>
      </trkpt>
      <trkpt lat="48.62278" lon="7.21843">
        <ele>575.486328</ele>
        <time>2013-05-04T12:09:47Z</time>
      </trkpt>
      <trkpt lat="48.62258" lon="7.21818">
        <ele>576.447754</ele>
        <time>2013-05-04T12:10:00Z</time>
      </trkpt>
      <trkpt lat="48.62242" lon="7.21788">
        <ele>576.447754</ele>
        <time>2013-05-04T12:10:14Z</time>
      </trkpt>
      <trkpt lat="48.62241" lon="7.21762">
        <ele>575.967041</ele>
        <time>2013-05-04T12:10:21Z</time>
      </trkpt>
      <trkpt lat="48.62249" lon="7.21737">
        <ele>575.486328</ele>
        <time>2013-05-04T12:10:28Z</time>
      </trkpt>
      <trkpt lat="48.62247" lon="7.21734">
        <ele>575.486328</ele>
        <time>2013-05-04T12:10:30Z</time>
      </trkpt>
      <trkpt lat="48.62233" lon="7.21754">
        <ele>575.005859</ele>
        <time>2013-05-04T12:10:41Z</time>
      </trkpt>
      <trkpt lat="48.62207" lon="7.21767">
        <ele>574.525146</ele>
        <time>2013-05-04T12:10:55Z</time>
      </trkpt>
      <trkpt lat="48.62206" lon="7.21768">
        <ele>575.967041</ele>
        <time>2013-05-04T12:11:04Z</time>
      </trkpt>
      <trkpt lat="48.62203" lon="7.21771">
        <ele>575.486328</ele>
        <time>2013-05-04T12:11:31Z</time>
      </trkpt>
      <trkpt lat="48.6222" lon="7.2177">
        <ele>575.486328</ele>
        <time>2013-05-04T12:11:40Z</time>
      </trkpt>
      <trkpt lat="48.62227" lon="7.21778">
        <ele>575.005859</ele>
        <time>2013-05-04T12:11:44Z</time>
      </trkpt>
      <trkpt lat="48.62231" lon="7.21793">
        <ele>575.005859</ele>
        <time>2013-05-04T12:11:50Z</time>
      </trkpt>
      <trkpt lat="48.6223" lon="7.21801">
        <ele>575.967041</ele>
        <time>2013-05-04T12:11:54Z</time>
      </trkpt>
      <trkpt lat="48.62219" lon="7.21816">
        <ele>578.370361</ele>
        <time>2013-05-04T12:12:06Z</time>
      </trkpt>
      <trkpt lat="48.62209" lon="7.21831">
        <ele>580.292969</ele>
        <time>2013-05-04T12:12:21Z</time>
      </trkpt>
      <trkpt lat="48.62201" lon="7.2184">
        <ele>581.254395</ele>
        <time>2013-05-04T12:12:34Z</time>
      </trkpt>
      <trkpt lat="48.62197" lon="7.21846">
        <ele>581.254395</ele>
        <time>2013-05-04T12:12:46Z</time>
      </trkpt>
      <trkpt lat="48.62185" lon="7.21856">
        <ele>581.734863</ele>
        <time>2013-05-04T12:12:55Z</time>
      </trkpt>
      <trkpt lat="48.62161" lon="7.21871">
        <ele>582.696289</ele>
        <time>2013-05-04T12:13:09Z</time>
      </trkpt>
      <trkpt lat="48.62143" lon="7.21888">
        <ele>582.696289</ele>
        <time>2013-05-04T12:13:24Z</time>
      </trkpt>
      <trkpt lat="48.62132" lon="7.21896">
        <ele>584.138184</ele>
        <time>2013-05-04T12:13:36Z</time>
      </trkpt>
      <trkpt lat="48.62118" lon="7.219">
        <ele>587.983398</ele>
        <time>2013-05-04T12:13:51Z</time>
      </trkpt>
      <trkpt lat="48.62105" lon="7.21902">
        <ele>592.30957</ele>
        <time>2013-05-04T12:14:06Z</time>
      </trkpt>
      <trkpt lat="48.62094" lon="7.21901">
        <ele>596.154785</ele>
        <time>2013-05-04T12:14:20Z</time>
      </trkpt>
      <trkpt lat="48.62085" lon="7.21898">
        <ele>598.557861</ele>
        <time>2013-05-04T12:14:33Z</time>
      </trkpt>
      <trkpt lat="48.62079" lon="7.21897">
        <ele>598.557861</ele>
        <time>2013-05-04T12:14:48Z</time>
      </trkpt>
      <trkpt lat="48.62081" lon="7.21896">
        <ele>600</ele>
        <time>2013-05-04T12:15:01Z</time>
      </trkpt>
      <trkpt lat="48.62082" lon="7.21898">
        <ele>593.751465</ele>
        <time>2013-05-04T12:17:03Z</time>
      </trkpt>
      <trkpt lat="48.62083" lon="7.21902">
        <ele>595.674072</ele>
        <time>2013-05-04T12:25:51Z</time>
      </trkpt>
      <trkpt lat="48.62084" lon="7.21903">
        <ele>599.038574</ele>
        <time>2013-05-04T12:30:38Z</time>
      </trkpt>
      <trkpt lat="48.62083" lon="7.21904">
        <ele>599.519287</ele>
        <time>2013-05-04T12:30:55Z</time>
      </trkpt>
      <trkpt lat="48.62081" lon="7.21904">
        <ele>599.038574</ele>
        <time>2013-05-04T12:31:12Z</time>
      </trkpt>
      <trkpt lat="48.62067" lon="7.21901">
        <ele>599.519287</ele>
        <time>2013-05-04T12:31:21Z</time>
      </trkpt>
      <trkpt lat="48.6205" lon="7.21905">
        <ele>602.883789</ele>
        <time>2013-05-04T12:31:34Z</time>
      </trkpt>
      <trkpt lat="48.62033" lon="7.21906">
        <ele>604.326172</ele>
        <time>2013-05-04T12:31:48Z</time>
      </trkpt>
      <trkpt lat="48.62018" lon="7.21911">
        <ele>604.806641</ele>
        <time>2013-05-04T12:32:00Z</time>
      </trkpt>
      <trkpt lat="48.62003" lon="7.21917">
        <ele>606.248535</ele>
        <time>2013-05-04T12:32:13Z</time>
      </trkpt>
      <trkpt lat="48.61983" lon="7.21929">
        <ele>607.209961</ele>
        <time>2013-05-04T12:32:28Z</time>
      </trkpt>
      <trkpt lat="48.61966" lon="7.21942">
        <ele>608.171387</ele>
        <time>2013-05-04T12:32:42Z</time>
      </trkpt>
      <trkpt lat="48.61952" lon="7.21956">
        <ele>608.171387</ele>
        <time>2013-05-04T12:32:54Z</time>
      </trkpt>
      <trkpt lat="48.61935" lon="7.2197">
        <ele>609.132568</ele>
        <time>2013-05-04T12:33:07Z</time>
      </trkpt>
      <trkpt lat="48.6191" lon="7.21984">
        <ele>610.09375</ele>
        <time>2013-05-04T12:33:24Z</time>
      </trkpt>
      <trkpt lat="48.61884" lon="7.21987">
        <ele>612.977783</ele>
        <time>2013-05-04T12:33:39Z</time>
      </trkpt>
      <trkpt lat="48.61862" lon="7.21992">
        <ele>613.938965</ele>
        <time>2013-05-04T12:33:52Z</time>
      </trkpt>
      <trkpt lat="48.61841" lon="7.21997">
        <ele>613.458496</ele>
        <time>2013-05-04T12:34:04Z</time>
      </trkpt>
      <trkpt lat="48.61815" lon="7.21998">
        <ele>615.381104</ele>
        <time>2013-05-04T12:34:18Z</time>
      </trkpt>
      <trkpt lat="48.61792" lon="7.21985">
        <ele>618.264893</ele>
        <time>2013-05-04T12:34:32Z</time>
      </trkpt>
      <trkpt lat="48.61769" lon="7.21969">
        <ele>620.187744</ele>
        <time>2013-05-04T12:34:47Z</time>
      </trkpt>
      <trkpt lat="48.61744" lon="7.2195">
        <ele>621.629639</ele>
        <time>2013-05-04T12:35:03Z</time>
      </trkpt>
      <trkpt lat="48.6173" lon="7.21927">
        <ele>622.110352</ele>
        <time>2013-05-04T12:35:17Z</time>
      </trkpt>
      <trkpt lat="48.61719" lon="7.21901">
        <ele>624.513672</ele>
        <time>2013-05-04T12:35:34Z</time>
      </trkpt>
      <trkpt lat="48.61698" lon="7.21878">
        <ele>628.358887</ele>
        <time>2013-05-04T12:35:51Z</time>
      </trkpt>
      <trkpt lat="48.61684" lon="7.21859">
        <ele>632.204102</ele>
        <time>2013-05-04T12:36:08Z</time>
      </trkpt>
      <trkpt lat="48.61682" lon="7.21858">
        <ele>641.817383</ele>
        <time>2013-05-04T12:36:25Z</time>
      </trkpt>
      <trkpt lat="48.61678" lon="7.21854">
        <ele>642.298096</ele>
        <time>2013-05-04T12:36:36Z</time>
      </trkpt>
      <trkpt lat="48.61674" lon="7.21851">
        <ele>641.817383</ele>
        <time>2013-05-04T12:36:40Z</time>
      </trkpt>
      <trkpt lat="48.61653" lon="7.21834">
        <ele>641.817383</ele>
        <time>2013-05-04T12:36:55Z</time>
      </trkpt>
      <trkpt lat="48.61631" lon="7.21817">
        <ele>637.972168</ele>
        <time>2013-05-04T12:37:18Z</time>
      </trkpt>
      <trkpt lat="48.61611" lon="7.21808">
        <ele>638.452881</ele>
        <time>2013-05-04T12:37:32Z</time>
      </trkpt>
      <trkpt lat="48.61591" lon="7.21805">
        <ele>638.452881</ele>
        <time>2013-05-04T12:37:49Z</time>
      </trkpt>
      <trkpt lat="48.61582" lon="7.21805">
        <ele>639.414062</ele>
        <time>2013-05-04T12:37:57Z</time>
      </trkpt>
      <trkpt lat="48.61569" lon="7.21794">
        <ele>638.933594</ele>
        <time>2013-05-04T12:38:10Z</time>
      </trkpt>
      <trkpt lat="48.61558" lon="7.21793">
        <ele>637.491455</ele>
        <time>2013-05-04T12:38:27Z</time>
      </trkpt>
      <trkpt lat="48.61545" lon="7.21792">
        <ele>638.452881</ele>
        <time>2013-05-04T12:38:37Z</time>
      </trkpt>
      <trkpt lat="48.61525" lon="7.21798">
        <ele>635.568604</ele>
        <time>2013-05-04T12:38:48Z</time>
      </trkpt>
      <trkpt lat="48.61487" lon="7.2183">
        <ele>632.684814</ele>
        <time>2013-05-04T12:39:02Z</time>
      </trkpt>
      <trkpt lat="48.61439" lon="7.21879">
        <ele>627.878174</ele>
        <time>2013-05-04T12:39:16Z</time>
      </trkpt>
      <trkpt lat="48.61403" lon="7.21921">
        <ele>626.436279</ele>
        <time>2013-05-04T12:39:31Z</time>
      </trkpt>
      <trkpt lat="48.61373" lon="7.21945">
        <ele>623.071777</ele>
        <time>2013-05-04T12:39:46Z</time>
      </trkpt>
      <trkpt lat="48.61346" lon="7.21961">
        <ele>622.591064</ele>
        <time>2013-05-04T12:40:01Z</time>
      </trkpt>
      <trkpt lat="48.61315" lon="7.21968">
        <ele>622.591064</ele>
        <time>2013-05-04T12:40:16Z</time>
      </trkpt>
      <trkpt lat="48.61303" lon="7.21972">
        <ele>622.110352</ele>
        <time>2013-05-04T12:40:21Z</time>
      </trkpt>
      <trkpt lat="48.61275" lon="7.21968">
        <ele>622.591064</ele>
        <time>2013-05-04T12:40:29Z</time>
      </trkpt>
      <trkpt lat="48.61231" lon="7.21961">
        <ele>621.629639</ele>
        <time>2013-05-04T12:40:46Z</time>
      </trkpt>
      <trkpt lat="48.61189" lon="7.21959">
        <ele>617.78418</ele>
        <time>2013-05-04T12:40:59Z</time>
      </trkpt>
      <trkpt lat="48.61132" lon="7.2195">
        <ele>615.861816</ele>
        <time>2013-05-04T12:41:14Z</time>
      </trkpt>
      <trkpt lat="48.61113" lon="7.21932">
        <ele>615.861816</ele>
        <time>2013-05-04T12:41:24Z</time>
      </trkpt>
      <trkpt lat="48.61091" lon="7.21908">
        <ele>618.264893</ele>
        <time>2013-05-04T12:41:41Z</time>
      </trkpt>
      <trkpt lat="48.61078" lon="7.21897">
        <ele>622.591064</ele>
        <time>2013-05-04T12:41:53Z</time>
      </trkpt>
      <trkpt lat="48.61065" lon="7.21883">
        <ele>624.032959</ele>
        <time>2013-05-04T12:42:10Z</time>
      </trkpt>
      <trkpt lat="48.61058" lon="7.2187">
        <ele>626.916992</ele>
        <time>2013-05-04T12:42:23Z</time>
      </trkpt>
      <trkpt lat="48.61051" lon="7.21852">
        <ele>631.723389</ele>
        <time>2013-05-04T12:42:40Z</time>
      </trkpt>
      <trkpt lat="48.61044" lon="7.2184">
        <ele>633.165283</ele>
        <time>2013-05-04T12:42:51Z</time>
      </trkpt>
      <trkpt lat="48.61039" lon="7.21826">
        <ele>633.165283</ele>
        <time>2013-05-04T12:43:04Z</time>
      </trkpt>
      <trkpt lat="48.61034" lon="7.21816">
        <ele>632.684814</ele>
        <time>2013-05-04T12:43:11Z</time>
      </trkpt>
      <trkpt lat="48.61022" lon="7.21795">
        <ele>631.24292</ele>
        <time>2013-05-04T12:43:23Z</time>
      </trkpt>
      <trkpt lat="48.61007" lon="7.21776">
        <ele>628.8396</ele>
        <time>2013-05-04T12:43:34Z</time>
      </trkpt>
      <trkpt lat="48.60987" lon="7.21761">
        <ele>629.320068</ele>
        <time>2013-05-04T12:43:44Z</time>
      </trkpt>
      <trkpt lat="48.60982" lon="7.21766">
        <ele>630.281494</ele>
        <time>2013-05-04T12:43:48Z</time>
      </trkpt>
      <trkpt lat="48.60976" lon="7.21772">
        <ele>630.762207</ele>
        <time>2013-05-04T12:43:52Z</time>
      </trkpt>
      <trkpt lat="48.60977" lon="7.21761">
        <ele>630.762207</ele>
        <time>2013-05-04T12:44:00Z</time>
      </trkpt>
      <trkpt lat="48.60993" lon="7.21756">
        <ele>630.762207</ele>
        <time>2013-05-04T12:44:11Z</time>
      </trkpt>
      <trkpt lat="48.61005" lon="7.21738">
        <ele>630.281494</ele>
        <time>2013-05-04T12:45:45Z</time>
      </trkpt>
      <trkpt lat="48.61034" lon="7.21702">
        <ele>626.916992</ele>
        <time>2013-05-04T12:45:58Z</time>
      </trkpt>
      <trkpt lat="48.61088" lon="7.21653">
        <ele>625.474854</ele>
        <time>2013-05-04T12:46:11Z</time>
      </trkpt>
      <trkpt lat="48.61199" lon="7.21604">
        <ele>620.668457</ele>
        <time>2013-05-04T12:46:28Z</time>
      </trkpt>
      <trkpt lat="48.6129" lon="7.21605">
        <ele>619.707031</ele>
        <time>2013-05-04T12:46:41Z</time>
      </trkpt>
      <trkpt lat="48.614" lon="7.21612">
        <ele>618.745605</ele>
        <time>2013-05-04T12:46:55Z</time>
      </trkpt>
      <trkpt lat="48.61422" lon="7.2159">
        <ele>614.419678</ele>
        <time>2013-05-04T12:47:02Z</time>
      </trkpt>
      <trkpt lat="48.61424" lon="7.21584">
        <ele>610.574463</ele>
        <time>2013-05-04T12:47:11Z</time>
      </trkpt>
      <trkpt lat="48.61418" lon="7.21586">
        <ele>605.287354</ele>
        <time>2013-05-04T12:47:38Z</time>
      </trkpt>
      <trkpt lat="48.6139" lon="7.21606">
        <ele>606.729248</ele>
        <time>2013-05-04T12:47:54Z</time>
      </trkpt>
      <trkpt lat="48.61341" lon="7.21619">
        <ele>606.729248</ele>
        <time>2013-05-04T12:48:10Z</time>
      </trkpt>
      <trkpt lat="48.61293" lon="7.21614">
        <ele>609.613281</ele>
        <time>2013-05-04T12:48:27Z</time>
      </trkpt>
      <trkpt lat="48.61242" lon="7.21607">
        <ele>612.49707</ele>
        <time>2013-05-04T12:48:47Z</time>
      </trkpt>
      <trkpt lat="48.61202" lon="7.21606">
        <ele>611.535889</ele>
        <time>2013-05-04T12:49:04Z</time>
      </trkpt>
      <trkpt lat="48.61153" lon="7.21617">
        <ele>616.342285</ele>
        <time>2013-05-04T12:49:25Z</time>
      </trkpt>
      <trkpt lat="48.61117" lon="7.21634">
        <ele>618.264893</ele>
        <time>2013-05-04T12:49:41Z</time>
      </trkpt>
      <trkpt lat="48.61108" lon="7.21643">
        <ele>619.226318</ele>
        <time>2013-05-04T12:49:46Z</time>
      </trkpt>
      <trkpt lat="48.61106" lon="7.21637">
        <ele>617.78418</ele>
        <time>2013-05-04T12:49:54Z</time>
      </trkpt>
      <trkpt lat="48.61106" lon="7.21636">
        <ele>617.78418</ele>
        <time>2013-05-04T12:49:55Z</time>
      </trkpt>
      <trkpt lat="48.61115" lon="7.21626">
        <ele>618.745605</ele>
        <time>2013-05-04T12:50:08Z</time>
      </trkpt>
      <trkpt lat="48.61114" lon="7.21624">
        <ele>617.78418</ele>
        <time>2013-05-04T12:50:11Z</time>
      </trkpt>
      <trkpt lat="48.61124" lon="7.21617">
        <ele>617.303711</ele>
        <time>2013-05-04T12:50:16Z</time>
      </trkpt>
      <trkpt lat="48.61395" lon="7.21518">
        <ele>604.326172</ele>
        <time>2013-05-04T12:51:47Z</time>
      </trkpt>
      <trkpt lat="48.6142" lon="7.21456">
        <ele>597.59668</ele>
        <time>2013-05-04T12:51:58Z</time>
      </trkpt>
      <trkpt lat="48.6149" lon="7.21338">
        <ele>587.502686</ele>
        <time>2013-05-04T12:52:25Z</time>
      </trkpt>
      <trkpt lat="48.61653" lon="7.21224">
        <ele>584.138184</ele>
        <time>2013-05-04T12:53:18Z</time>
      </trkpt>
      <trkpt lat="48.61655" lon="7.21222">
        <ele>583.176758</ele>
        <time>2013-05-04T12:53:20Z</time>
      </trkpt>
      <trkpt lat="48.6171" lon="7.21139">
        <ele>583.176758</ele>
        <time>2013-05-04T12:53:45Z</time>
      </trkpt>
      <trkpt lat="48.61713" lon="7.21117">
        <ele>583.176758</ele>
        <time>2013-05-04T12:53:51Z</time>
      </trkpt>
      <trkpt lat="48.61687" lon="7.21028">
        <ele>583.176758</ele>
        <time>2013-05-04T12:54:10Z</time>
      </trkpt>
      <trkpt lat="48.61689" lon="7.21017">
        <ele>577.889648</ele>
        <time>2013-05-04T12:54:19Z</time>
      </trkpt>
      <trkpt lat="48.61693" lon="7.21009">
        <ele>563.950439</ele>
        <time>2013-05-04T12:54:32Z</time>
      </trkpt>
      <trkpt lat="48.61708" lon="7.21006">
        <ele>549.050049</ele>
        <time>2013-05-04T12:54:51Z</time>
      </trkpt>
      <trkpt lat="48.61729" lon="7.20978">
        <ele>541.359497</ele>
        <time>2013-05-04T12:55:01Z</time>
      </trkpt>
      <trkpt lat="48.61765" lon="7.20918">
        <ele>533.668945</ele>
        <time>2013-05-04T12:55:14Z</time>
      </trkpt>
      <trkpt lat="48.61816" lon="7.20829">
        <ele>525.978394</ele>
        <time>2013-05-04T12:55:29Z</time>
      </trkpt>
      <trkpt lat="48.61869" lon="7.2073">
        <ele>522.133179</ele>
        <time>2013-05-04T12:55:41Z</time>
      </trkpt>
      <trkpt lat="48.61937" lon="7.2057">
        <ele>515.404053</ele>
        <time>2013-05-04T12:55:57Z</time>
      </trkpt>
      <trkpt lat="48.61991" lon="7.20448">
        <ele>508.194092</ele>
        <time>2013-05-04T12:56:10Z</time>
      </trkpt>
      <trkpt lat="48.61991" lon="7.20446">
        <ele>505.790894</ele>
        <time>2013-05-04T12:56:14Z</time>
      </trkpt>
      <trkpt lat="48.61992" lon="7.20404">
        <ele>501.945557</ele>
        <time>2013-05-04T12:56:37Z</time>
      </trkpt>
      <trkpt lat="48.62004" lon="7.20412">
        <ele>501.464844</ele>
        <time>2013-05-04T12:56:39Z</time>
      </trkpt>
      <trkpt lat="48.62024" lon="7.20404">
        <ele>500.50354</ele>
        <time>2013-05-04T12:56:43Z</time>
      </trkpt>
      <trkpt lat="48.6211" lon="7.20262">
        <ele>498.580933</ele>
        <time>2013-05-04T12:57:10Z</time>
      </trkpt>
      <trkpt lat="48.62118" lon="7.20251">
        <ele>495.216187</ele>
        <time>2013-05-04T12:57:14Z</time>
      </trkpt>
      <trkpt lat="48.62121" lon="7.20247">
        <ele>494.735596</ele>
        <time>2013-05-04T12:57:15Z</time>
      </trkpt>
      <trkpt lat="48.62153" lon="7.20197">
        <ele>490.890381</ele>
        <time>2013-05-04T12:57:27Z</time>
      </trkpt>
      <trkpt lat="48.62262" lon="7.20064">
        <ele>490.40979</ele>
        <time>2013-05-04T12:58:03Z</time>
      </trkpt>
      <trkpt lat="48.62507" lon="7.1991">
        <ele>486.08374</ele>
        <time>2013-05-04T12:59:03Z</time>
      </trkpt>
      <trkpt lat="48.62516" lon="7.1994">
        <ele>484.161133</ele>
        <time>2013-05-04T12:59:07Z</time>
      </trkpt>
      <trkpt lat="48.62526" lon="7.19991">
        <ele>476.470581</ele>
        <time>2013-05-04T12:59:16Z</time>
      </trkpt>
      <trkpt lat="48.62532" lon="7.20023">
        <ele>467.338135</ele>
        <time>2013-05-04T12:59:26Z</time>
      </trkpt>
      <trkpt lat="48.62532" lon="7.20027">
        <ele>455.321533</ele>
        <time>2013-05-04T12:59:36Z</time>
      </trkpt>
      <trkpt lat="48.62533" lon="7.20034">
        <ele>436.575928</ele>
        <time>2013-05-04T12:59:54Z</time>
      </trkpt>
      <trkpt lat="48.62534" lon="7.19987">
        <ele>428.885376</ele>
        <time>2013-05-04T13:00:11Z</time>
      </trkpt>
      <trkpt lat="48.62538" lon="7.19916">
        <ele>421.194824</ele>
        <time>2013-05-04T13:00:29Z</time>
      </trkpt>
      <trkpt lat="48.62547" lon="7.19838">
        <ele>413.504272</ele>
        <time>2013-05-04T13:00:48Z</time>
      </trkpt>
      <trkpt lat="48.62553" lon="7.19805">
        <ele>409.659058</ele>
        <time>2013-05-04T13:00:59Z</time>
      </trkpt>
      <trkpt lat="48.62553" lon="7.19804">
        <ele>408.217041</ele>
        <time>2013-05-04T13:01:01Z</time>
      </trkpt>
      <trkpt lat="48.62551" lon="7.19798">
        <ele>406.294312</ele>
        <time>2013-05-04T13:01:05Z</time>
      </trkpt>
      <trkpt lat="48.6256" lon="7.19718">
        <ele>406.294312</ele>
        <time>2013-05-04T13:01:30Z</time>
      </trkpt>
      <trkpt lat="48.62561" lon="7.19715">
        <ele>403.891113</ele>
        <time>2013-05-04T13:01:39Z</time>
      </trkpt>
      <trkpt lat="48.6256" lon="7.19714">
        <ele>402.449097</ele>
        <time>2013-05-04T13:01:54Z</time>
      </trkpt>
      <trkpt lat="48.62561" lon="7.19705">
        <ele>400.045898</ele>
        <time>2013-05-04T13:02:02Z</time>
      </trkpt>
      <trkpt lat="48.62576" lon="7.19684">
        <ele>394.277954</ele>
        <time>2013-05-04T13:02:13Z</time>
      </trkpt>
      <trkpt lat="48.626" lon="7.19654">
        <ele>391.393799</ele>
        <time>2013-05-04T13:02:28Z</time>
      </trkpt>
      <trkpt lat="48.62615" lon="7.19604">
        <ele>390.432617</ele>
        <time>2013-05-04T13:02:44Z</time>
      </trkpt>
      <trkpt lat="48.62617" lon="7.19595">
        <ele>390.913208</ele>
        <time>2013-05-04T13:02:47Z</time>
      </trkpt>
      <trkpt lat="48.62601" lon="7.19554">
        <ele>391.874512</ele>
        <time>2013-05-04T13:03:00Z</time>
      </trkpt>
      <trkpt lat="48.6259" lon="7.19536">
        <ele>391.874512</ele>
        <time>2013-05-04T13:03:08Z</time>
      </trkpt>
      <trkpt lat="48.62589" lon="7.1954">
        <ele>391.874512</ele>
        <time>2013-05-04T13:03:11Z</time>
      </trkpt>
      <trkpt lat="48.62608" lon="7.19574">
        <ele>392.355347</ele>
        <time>2013-05-04T13:03:21Z</time>
      </trkpt>
      <trkpt lat="48.6261" lon="7.19579">
        <ele>392.355347</ele>
        <time>2013-05-04T13:03:22Z</time>
      </trkpt>
      <trkpt lat="48.62612" lon="7.19607">
        <ele>391.393799</ele>
        <time>2013-05-04T13:03:26Z</time>
      </trkpt>
      <trkpt lat="48.62592" lon="7.19664">
        <ele>389.951904</ele>
        <time>2013-05-04T13:03:32Z</time>
      </trkpt>
      <trkpt lat="48.62566" lon="7.19702">
        <ele>388.51001</ele>
        <time>2013-05-04T13:03:37Z</time>
      </trkpt>
      <trkpt lat="48.62559" lon="7.19734">
        <ele>388.51001</ele>
        <time>2013-05-04T13:03:42Z</time>
      </trkpt>
      <trkpt lat="48.62589" lon="7.19748">
        <ele>388.029297</ele>
        <time>2013-05-04T13:03:50Z</time>
      </trkpt>
      <trkpt lat="48.62607" lon="7.19732">
        <ele>387.067993</ele>
        <time>2013-05-04T13:03:54Z</time>
      </trkpt>
      <trkpt lat="48.62622" lon="7.1971">
        <ele>386.106689</ele>
        <time>2013-05-04T13:03:57Z</time>
      </trkpt>
      <trkpt lat="48.62676" lon="7.19581">
        <ele>384.664795</ele>
        <time>2013-05-04T13:04:11Z</time>
      </trkpt>
      <trkpt lat="48.62686" lon="7.19541">
        <ele>384.664795</ele>
        <time>2013-05-04T13:04:15Z</time>
      </trkpt>
      <trkpt lat="48.62681" lon="7.19501">
        <ele>381.78064</ele>
        <time>2013-05-04T13:04:22Z</time>
      </trkpt>
      <trkpt lat="48.62686" lon="7.19474">
        <ele>378.416138</ele>
        <time>2013-05-04T13:04:29Z</time>
      </trkpt>
      <trkpt lat="48.62691" lon="7.19467">
        <ele>376.49353</ele>
        <time>2013-05-04T13:04:31Z</time>
      </trkpt>
      <trkpt lat="48.6273" lon="7.19421">
        <ele>376.49353</ele>
        <time>2013-05-04T13:04:39Z</time>
      </trkpt>
      <trkpt lat="48.62802" lon="7.1925">
        <ele>369.764282</ele>
        <time>2013-05-04T13:04:56Z</time>
      </trkpt>
      <trkpt lat="48.62825" lon="7.19192">
        <ele>367.360962</ele>
        <time>2013-05-04T13:05:02Z</time>
      </trkpt>
      <trkpt lat="48.62815" lon="7.19166">
        <ele>362.07373</ele>
        <time>2013-05-04T13:05:13Z</time>
      </trkpt>
      <trkpt lat="48.62808" lon="7.19163">
        <ele>361.112427</ele>
        <time>2013-05-04T13:05:17Z</time>
      </trkpt>
      <trkpt lat="48.62761" lon="7.19162">
        <ele>361.112427</ele>
        <time>2013-05-04T13:05:41Z</time>
      </trkpt>
      <trkpt lat="48.6275" lon="7.19165">
        <ele>360.631714</ele>
        <time>2013-05-04T13:05:53Z</time>
      </trkpt>
      <trkpt lat="48.62779" lon="7.1917">
        <ele>359.67041</ele>
        <time>2013-05-04T13:06:09Z</time>
      </trkpt>
      <trkpt lat="48.62806" lon="7.19166">
        <ele>357.26709</ele>
        <time>2013-05-04T13:06:25Z</time>
      </trkpt>
      <trkpt lat="48.62814" lon="7.1915">
        <ele>356.786377</ele>
        <time>2013-05-04T13:06:39Z</time>
      </trkpt>
      <trkpt lat="48.62814" lon="7.19149">
        <ele>356.786377</ele>
        <time>2013-05-04T13:06:40Z</time>
      </trkpt>
      <trkpt lat="48.62836" lon="7.19122">
        <ele>356.786377</ele>
        <time>2013-05-04T13:07:00Z</time>
      </trkpt>
      <trkpt lat="48.62865" lon="7.19108">
        <ele>355.344482</ele>
        <time>2013-05-04T13:07:19Z</time>
      </trkpt>
      <trkpt lat="48.6289" lon="7.19113">
        <ele>357.26709</ele>
        <time>2013-05-04T13:07:37Z</time>
      </trkpt>
      <trkpt lat="48.62939" lon="7.19134">
        <ele>363.515747</ele>
        <time>2013-05-04T13:08:13Z</time>
      </trkpt>
      <trkpt lat="48.62981" lon="7.19142">
        <ele>363.035034</ele>
        <time>2013-05-04T13:08:41Z</time>
      </trkpt>
      <trkpt lat="48.63041" lon="7.19143">
        <ele>364.957642</ele>
        <time>2013-05-04T13:09:23Z</time>
      </trkpt>
      <trkpt lat="48.6306" lon="7.19154">
        <ele>368.322266</ele>
        <time>2013-05-04T13:09:39Z</time>
      </trkpt>
      <trkpt lat="48.6308" lon="7.19163">
        <ele>373.609497</ele>
        <time>2013-05-04T13:09:56Z</time>
      </trkpt>
      <trkpt lat="48.63097" lon="7.19165">
        <ele>377.454834</ele>
        <time>2013-05-04T13:10:17Z</time>
      </trkpt>
      <trkpt lat="48.63109" lon="7.19167">
        <ele>378.896851</ele>
        <time>2013-05-04T13:10:33Z</time>
      </trkpt>
      <trkpt lat="48.63122" lon="7.19168">
        <ele>384.664795</ele>
        <time>2013-05-04T13:10:48Z</time>
      </trkpt>
      <trkpt lat="48.63132" lon="7.19172">
        <ele>385.625977</ele>
        <time>2013-05-04T13:11:01Z</time>
      </trkpt>
      <trkpt lat="48.63161" lon="7.19184">
        <ele>385.625977</ele>
        <time>2013-05-04T13:11:19Z</time>
      </trkpt>
      <trkpt lat="48.63197" lon="7.19202">
        <ele>395.239136</ele>
        <time>2013-05-04T13:11:50Z</time>
      </trkpt>
      <trkpt lat="48.63204" lon="7.1921">
        <ele>399.084351</ele>
        <time>2013-05-04T13:12:11Z</time>
      </trkpt>
      <trkpt lat="48.63215" lon="7.1921">
        <ele>402.929688</ele>
        <time>2013-05-04T13:12:46Z</time>
      </trkpt>
      <trkpt lat="48.63273" lon="7.19168">
        <ele>401.487793</ele>
        <time>2013-05-04T13:13:39Z</time>
      </trkpt>
      <trkpt lat="48.63327" lon="7.19145">
        <ele>402.449097</ele>
        <time>2013-05-04T13:13:59Z</time>
      </trkpt>
      <trkpt lat="48.63308" lon="7.1905">
        <ele>400.526489</ele>
        <time>2013-05-04T13:14:52Z</time>
      </trkpt>
      <trkpt lat="48.63299" lon="7.19038">
        <ele>402.449097</ele>
        <time>2013-05-04T13:15:02Z</time>
      </trkpt>
      <trkpt lat="48.63296" lon="7.19034">
        <ele>402.449097</ele>
        <time>2013-05-04T13:15:04Z</time>
      </trkpt>
      <trkpt lat="48.63272" lon="7.19011">
        <ele>404.852295</ele>
        <time>2013-05-04T13:15:20Z</time>
      </trkpt>
      <trkpt lat="48.63253" lon="7.18989">
        <ele>408.217041</ele>
        <time>2013-05-04T13:15:40Z</time>
      </trkpt>
      <trkpt lat="48.6323" lon="7.18961">
        <ele>412.062256</ele>
        <time>2013-05-04T13:15:57Z</time>
      </trkpt>
      <trkpt lat="48.63209" lon="7.18932">
        <ele>412.542847</ele>
        <time>2013-05-04T13:16:16Z</time>
      </trkpt>
      <trkpt lat="48.63174" lon="7.1886">
        <ele>422.636719</ele>
        <time>2013-05-04T13:16:56Z</time>
      </trkpt>
      <trkpt lat="48.63133" lon="7.18777">
        <ele>428.404663</ele>
        <time>2013-05-04T13:17:36Z</time>
      </trkpt>
      <trkpt lat="48.63148" lon="7.18779">
        <ele>429.846558</ele>
        <time>2013-05-04T13:17:43Z</time>
      </trkpt>
      <trkpt lat="48.63142" lon="7.18712">
        <ele>435.133911</ele>
        <time>2013-05-04T13:18:06Z</time>
      </trkpt>
      <trkpt lat="48.63129" lon="7.18604">
        <ele>437.537109</ele>
        <time>2013-05-04T13:18:42Z</time>
      </trkpt>
      <trkpt lat="48.63121" lon="7.18549">
        <ele>436.095215</ele>
        <time>2013-05-04T13:18:58Z</time>
      </trkpt>
      <trkpt lat="48.63107" lon="7.18442">
        <ele>439.94043</ele>
        <time>2013-05-04T13:19:31Z</time>
      </trkpt>
      <trkpt lat="48.63094" lon="7.18358">
        <ele>443.305054</ele>
        <time>2013-05-04T13:20:02Z</time>
      </trkpt>
      <trkpt lat="48.6307" lon="7.18114">
        <ele>451.957031</ele>
        <time>2013-05-04T13:21:44Z</time>
      </trkpt>
      <trkpt lat="48.63072" lon="7.18066">
        <ele>452.437622</ele>
        <time>2013-05-04T13:22:05Z</time>
      </trkpt>
      <trkpt lat="48.63082" lon="7.18007">
        <ele>454.360229</ele>
        <time>2013-05-04T13:22:30Z</time>
      </trkpt>
      <trkpt lat="48.63098" lon="7.17961">
        <ele>462.531372</ele>
        <time>2013-05-04T13:22:53Z</time>
      </trkpt>
      <trkpt lat="48.63107" lon="7.17933">
        <ele>464.454102</ele>
        <time>2013-05-04T13:23:06Z</time>
      </trkpt>
      <trkpt lat="48.63116" lon="7.17895">
        <ele>466.376709</ele>
        <time>2013-05-04T13:23:22Z</time>
      </trkpt>
      <trkpt lat="48.63134" lon="7.17853">
        <ele>466.376709</ele>
        <time>2013-05-04T13:23:41Z</time>
      </trkpt>
      <trkpt lat="48.63146" lon="7.17809">
        <ele>467.818726</ele>
        <time>2013-05-04T13:24:00Z</time>
      </trkpt>
      <trkpt lat="48.63146" lon="7.17781">
        <ele>470.221924</ele>
        <time>2013-05-04T13:24:19Z</time>
      </trkpt>
      <trkpt lat="48.63148" lon="7.17775">
        <ele>471.66394</ele>
        <time>2013-05-04T13:24:24Z</time>
      </trkpt>
      <trkpt lat="48.63156" lon="7.17768">
        <ele>487.045044</ele>
        <time>2013-05-04T13:24:38Z</time>
      </trkpt>
      <trkpt lat="48.63169" lon="7.17763">
        <ele>488.00647</ele>
        <time>2013-05-04T13:24:54Z</time>
      </trkpt>
      <trkpt lat="48.63192" lon="7.17745">
        <ele>490.40979</ele>
        <time>2013-05-04T13:25:12Z</time>
      </trkpt>
      <trkpt lat="48.63193" lon="7.17741">
        <ele>491.370972</ele>
        <time>2013-05-04T13:25:26Z</time>
      </trkpt>
      <trkpt lat="48.63187" lon="7.17748">
        <ele>492.332397</ele>
        <time>2013-05-04T13:25:30Z</time>
      </trkpt>
      <trkpt lat="48.63176" lon="7.17761">
        <ele>493.774292</ele>
        <time>2013-05-04T13:25:37Z</time>
      </trkpt>
      <trkpt lat="48.63171" lon="7.17763">
        <ele>494.255005</ele>
        <time>2013-05-04T13:25:40Z</time>
      </trkpt>
      <trkpt lat="48.63165" lon="7.17769">
        <ele>492.812988</ele>
        <time>2013-05-04T13:25:48Z</time>
      </trkpt>
      <trkpt lat="48.63165" lon="7.17761">
        <ele>492.332397</ele>
        <time>2013-05-04T13:26:01Z</time>
      </trkpt>
      <trkpt lat="48.6317" lon="7.17755">
        <ele>502.906738</ele>
        <time>2013-05-04T13:26:14Z</time>
      </trkpt>
      <trkpt lat="48.6317" lon="7.17755">
        <ele>501.945557</ele>
        <time>2013-05-04T13:26:17Z</time>
      </trkpt>
      <trkpt lat="48.63186" lon="7.1774">
        <ele>500.50354</ele>
        <time>2013-05-04T13:26:29Z</time>
      </trkpt>
      <trkpt lat="48.63206" lon="7.17712">
        <ele>500.50354</ele>
        <time>2013-05-04T13:26:49Z</time>
      </trkpt>
      <trkpt lat="48.63218" lon="7.17697">
        <ele>500.984131</ele>
        <time>2013-05-04T13:27:02Z</time>
      </trkpt>
      <trkpt lat="48.63231" lon="7.17691">
        <ele>503.868164</ele>
        <time>2013-05-04T13:27:18Z</time>
      </trkpt>
      <trkpt lat="48.63242" lon="7.17686">
        <ele>504.829468</ele>
        <time>2013-05-04T13:27:29Z</time>
      </trkpt>
      <trkpt lat="48.63253" lon="7.17685">
        <ele>503.387451</ele>
        <time>2013-05-04T13:27:46Z</time>
      </trkpt>
      <trkpt lat="48.63258" lon="7.17684">
        <ele>504.829468</ele>
        <time>2013-05-04T13:27:58Z</time>
      </trkpt>
      <trkpt lat="48.63269" lon="7.17683">
        <ele>508.674683</ele>
        <time>2013-05-04T13:28:12Z</time>
      </trkpt>
      <trkpt lat="48.63271" lon="7.17688">
        <ele>507.232788</ele>
        <time>2013-05-04T13:28:15Z</time>
      </trkpt>
      <trkpt lat="48.63277" lon="7.17686">
        <ele>510.59729</ele>
        <time>2013-05-04T13:28:25Z</time>
      </trkpt>
      <trkpt lat="48.63284" lon="7.17685">
        <ele>513.000732</ele>
        <time>2013-05-04T13:28:41Z</time>
      </trkpt>
      <trkpt lat="48.63297" lon="7.17694">
        <ele>519.729858</ele>
        <time>2013-05-04T13:29:04Z</time>
      </trkpt>
      <trkpt lat="48.63316" lon="7.17693">
        <ele>516.365234</ele>
        <time>2013-05-04T13:29:21Z</time>
      </trkpt>
      <trkpt lat="48.63333" lon="7.17714">
        <ele>521.652588</ele>
        <time>2013-05-04T13:29:36Z</time>
      </trkpt>
      <trkpt lat="48.63343" lon="7.17722">
        <ele>522.133179</ele>
        <time>2013-05-04T13:29:44Z</time>
      </trkpt>
      <trkpt lat="48.63346" lon="7.17724">
        <ele>523.094604</ele>
        <time>2013-05-04T13:29:46Z</time>
      </trkpt>
      <trkpt lat="48.63354" lon="7.17727">
        <ele>521.652588</ele>
        <time>2013-05-04T13:29:53Z</time>
      </trkpt>
      <trkpt lat="48.63445" lon="7.17801">
        <ele>525.978394</ele>
        <time>2013-05-04T13:31:00Z</time>
      </trkpt>
      <trkpt lat="48.63465" lon="7.17825">
        <ele>531.746338</ele>
        <time>2013-05-04T13:31:14Z</time>
      </trkpt>
      <trkpt lat="48.63487" lon="7.1785">
        <ele>529.82373</ele>
        <time>2013-05-04T13:31:30Z</time>
      </trkpt>
      <trkpt lat="48.63493" lon="7.17858">
        <ele>531.265747</ele>
        <time>2013-05-04T13:31:41Z</time>
      </trkpt>
      <trkpt lat="48.63505" lon="7.1788">
        <ele>530.304443</ele>
        <time>2013-05-04T13:31:57Z</time>
      </trkpt>
      <trkpt lat="48.63523" lon="7.17902">
        <ele>529.82373</ele>
        <time>2013-05-04T13:32:13Z</time>
      </trkpt>
      <trkpt lat="48.63536" lon="7.17915">
        <ele>530.304443</ele>
        <time>2013-05-04T13:32:26Z</time>
      </trkpt>
      <trkpt lat="48.63538" lon="7.17928">
        <ele>531.265747</ele>
        <time>2013-05-04T13:32:39Z</time>
      </trkpt>
      <trkpt lat="48.63542" lon="7.17917">
        <ele>537.994995</ele>
        <time>2013-05-04T13:33:35Z</time>
      </trkpt>
      <trkpt lat="48.63534" lon="7.17905">
        <ele>546.646851</ele>
        <time>2013-05-04T13:34:04Z</time>
      </trkpt>
      <trkpt lat="48.63534" lon="7.17901">
        <ele>545.685547</ele>
        <time>2013-05-04T13:34:07Z</time>
      </trkpt>
      <trkpt lat="48.63516" lon="7.1787">
        <ele>538.956299</ele>
        <time>2013-05-04T13:34:20Z</time>
      </trkpt>
      <trkpt lat="48.63492" lon="7.17831">
        <ele>532.707764</ele>
        <time>2013-05-04T13:34:32Z</time>
      </trkpt>
      <trkpt lat="48.63465" lon="7.1779">
        <ele>531.265747</ele>
        <time>2013-05-04T13:34:44Z</time>
      </trkpt>
      <trkpt lat="48.63453" lon="7.17775">
        <ele>531.746338</ele>
        <time>2013-05-04T13:34:49Z</time>
      </trkpt>
      <trkpt lat="48.63451" lon="7.1777">
        <ele>531.746338</ele>
        <time>2013-05-04T13:34:50Z</time>
      </trkpt>
      <trkpt lat="48.63388" lon="7.17662">
        <ele>530.304443</ele>
        <time>2013-05-04T13:35:17Z</time>
      </trkpt>
      <trkpt lat="48.63349" lon="7.17602">
        <ele>530.785156</ele>
        <time>2013-05-04T13:35:35Z</time>
      </trkpt>
      <trkpt lat="48.63327" lon="7.17563">
        <ele>531.265747</ele>
        <time>2013-05-04T13:35:49Z</time>
      </trkpt>
      <trkpt lat="48.633" lon="7.17524">
        <ele>530.304443</ele>
        <time>2013-05-04T13:36:05Z</time>
      </trkpt>
      <trkpt lat="48.6329" lon="7.17517">
        <ele>529.82373</ele>
        <time>2013-05-04T13:36:09Z</time>
      </trkpt>
      <trkpt lat="48.63259" lon="7.17479">
        <ele>529.82373</ele>
        <time>2013-05-04T13:36:25Z</time>
      </trkpt>
      <trkpt lat="48.63234" lon="7.17443">
        <ele>528.862549</ele>
        <time>2013-05-04T13:36:39Z</time>
      </trkpt>
      <trkpt lat="48.63132" lon="7.17378">
        <ele>533.188354</ele>
        <time>2013-05-04T13:37:08Z</time>
      </trkpt>
      <trkpt lat="48.63088" lon="7.17395">
        <ele>533.668945</ele>
        <time>2013-05-04T13:37:21Z</time>
      </trkpt>
      <trkpt lat="48.63057" lon="7.17416">
        <ele>533.188354</ele>
        <time>2013-05-04T13:37:28Z</time>
      </trkpt>
      <trkpt lat="48.6302" lon="7.17459">
        <ele>533.668945</ele>
        <time>2013-05-04T13:37:40Z</time>
      </trkpt>
      <trkpt lat="48.62997" lon="7.17492">
        <ele>536.072388</ele>
        <time>2013-05-04T13:37:55Z</time>
      </trkpt>
      <trkpt lat="48.62966" lon="7.17537">
        <ele>545.685547</ele>
        <time>2013-05-04T13:38:26Z</time>
      </trkpt>
      <trkpt lat="48.62927" lon="7.1758">
        <ele>544.243652</ele>
        <time>2013-05-04T13:39:04Z</time>
      </trkpt>
      <trkpt lat="48.6291" lon="7.17607">
        <ele>541.84021</ele>
        <time>2013-05-04T13:39:17Z</time>
      </trkpt>
      <trkpt lat="48.62744" lon="7.17889">
        <ele>543.282104</ele>
        <time>2013-05-04T13:40:35Z</time>
      </trkpt>
      <trkpt lat="48.62729" lon="7.17913">
        <ele>543.762817</ele>
        <time>2013-05-04T13:40:50Z</time>
      </trkpt>
      <trkpt lat="48.6272" lon="7.17932">
        <ele>541.84021</ele>
        <time>2013-05-04T13:41:03Z</time>
      </trkpt>
      <trkpt lat="48.62713" lon="7.17944">
        <ele>545.204834</ele>
        <time>2013-05-04T13:41:11Z</time>
      </trkpt>
      <trkpt lat="48.62703" lon="7.17942">
        <ele>545.204834</ele>
        <time>2013-05-04T13:41:17Z</time>
      </trkpt>
      <trkpt lat="48.62667" lon="7.1791">
        <ele>543.282104</ele>
        <time>2013-05-04T13:41:32Z</time>
      </trkpt>
      <trkpt lat="48.62661" lon="7.17907">
        <ele>542.801514</ele>
        <time>2013-05-04T13:41:35Z</time>
      </trkpt>
      <trkpt lat="48.62655" lon="7.17903">
        <ele>542.801514</ele>
        <time>2013-05-04T13:41:39Z</time>
      </trkpt>
      <trkpt lat="48.62648" lon="7.17894">
        <ele>541.84021</ele>
        <time>2013-05-04T13:41:50Z</time>
      </trkpt>
      <trkpt lat="48.62645" lon="7.17893">
        <ele>542.801514</ele>
        <time>2013-05-04T13:42:05Z</time>
      </trkpt>
      <trkpt lat="48.62643" lon="7.17891">
        <ele>542.801514</ele>
        <time>2013-05-04T13:48:35Z</time>
      </trkpt>
      <trkpt lat="48.62679" lon="7.17973">
        <ele>535.591553</ele>
        <time>2013-05-04T13:50:09Z</time>
      </trkpt>
      <trkpt lat="48.62628" lon="7.17896">
        <ele>532.707764</ele>
        <time>2013-05-04T13:50:47Z</time>
      </trkpt>
      <trkpt lat="48.62622" lon="7.17896">
        <ele>532.707764</ele>
        <time>2013-05-04T13:50:52Z</time>
      </trkpt>
      <trkpt lat="48.62602" lon="7.17934">
        <ele>529.82373</ele>
        <time>2013-05-04T13:51:13Z</time>
      </trkpt>
      <trkpt lat="48.62592" lon="7.17933">
        <ele>526.939819</ele>
        <time>2013-05-04T13:51:27Z</time>
      </trkpt>
      <trkpt lat="48.6258" lon="7.17882">
        <ele>524.055786</ele>
        <time>2013-05-04T13:51:41Z</time>
      </trkpt>
      <trkpt lat="48.62575" lon="7.17864">
        <ele>518.768555</ele>
        <time>2013-05-04T13:51:46Z</time>
      </trkpt>
      <trkpt lat="48.6257" lon="7.17847">
        <ele>516.365234</ele>
        <time>2013-05-04T13:51:49Z</time>
      </trkpt>
      <trkpt lat="48.62559" lon="7.17843">
        <ele>512.52002</ele>
        <time>2013-05-04T13:51:53Z</time>
      </trkpt>
      <trkpt lat="48.62548" lon="7.17844">
        <ele>509.155396</ele>
        <time>2013-05-04T13:52:01Z</time>
      </trkpt>
      <trkpt lat="48.62541" lon="7.1785">
        <ele>503.868164</ele>
        <time>2013-05-04T13:52:13Z</time>
      </trkpt>
      <trkpt lat="48.62541" lon="7.17838">
        <ele>499.542236</ele>
        <time>2013-05-04T13:53:40Z</time>
      </trkpt>
      <trkpt lat="48.62542" lon="7.17819">
        <ele>498.580933</ele>
        <time>2013-05-04T13:53:46Z</time>
      </trkpt>
      <trkpt lat="48.62551" lon="7.17808">
        <ele>497.138916</ele>
        <time>2013-05-04T13:53:54Z</time>
      </trkpt>
      <trkpt lat="48.62556" lon="7.17823">
        <ele>496.177734</ele>
        <time>2013-05-04T13:54:01Z</time>
      </trkpt>
      <trkpt lat="48.62562" lon="7.17855">
        <ele>492.332397</ele>
        <time>2013-05-04T13:54:13Z</time>
      </trkpt>
      <trkpt lat="48.62564" lon="7.17865">
        <ele>491.370972</ele>
        <time>2013-05-04T13:54:17Z</time>
      </trkpt>
      <trkpt lat="48.6256" lon="7.17854">
        <ele>490.890381</ele>
        <time>2013-05-04T13:54:24Z</time>
      </trkpt>
      <trkpt lat="48.6256" lon="7.17847">
        <ele>490.890381</ele>
        <time>2013-05-04T13:54:26Z</time>
      </trkpt>
      <trkpt lat="48.62552" lon="7.17805">
        <ele>488.967773</ele>
        <time>2013-05-04T13:54:37Z</time>
      </trkpt>
      <trkpt lat="48.62548" lon="7.17765">
        <ele>485.603027</ele>
        <time>2013-05-04T13:54:51Z</time>
      </trkpt>
      <trkpt lat="48.6255" lon="7.17754">
        <ele>487.525635</ele>
        <time>2013-05-04T13:55:06Z</time>
      </trkpt>
      <trkpt lat="48.6255" lon="7.17751">
        <ele>487.525635</ele>
        <time>2013-05-04T13:55:08Z</time>
      </trkpt>
      <trkpt lat="48.62554" lon="7.17702">
        <ele>485.603027</ele>
        <time>2013-05-04T13:55:28Z</time>
      </trkpt>
      <trkpt lat="48.62534" lon="7.17524">
        <ele>485.603027</ele>
        <time>2013-05-04T13:56:05Z</time>
      </trkpt>
      <trkpt lat="48.62474" lon="7.1734">
        <ele>484.641846</ele>
        <time>2013-05-04T13:56:47Z</time>
      </trkpt>
      <trkpt lat="48.62453" lon="7.17309">
        <ele>484.641846</ele>
        <time>2013-05-04T13:57:00Z</time>
      </trkpt>
      <trkpt lat="48.62436" lon="7.17263">
        <ele>484.161133</ele>
        <time>2013-05-04T13:57:13Z</time>
      </trkpt>
      <trkpt lat="48.62467" lon="7.17192">
        <ele>482.238525</ele>
        <time>2013-05-04T13:57:30Z</time>
      </trkpt>
      <trkpt lat="48.62487" lon="7.17153">
        <ele>477.431885</ele>
        <time>2013-05-04T13:57:41Z</time>
      </trkpt>
      <trkpt lat="48.6249" lon="7.17144">
        <ele>475.028687</ele>
        <time>2013-05-04T13:57:49Z</time>
      </trkpt>
      <trkpt lat="48.62496" lon="7.17132">
        <ele>469.741333</ele>
        <time>2013-05-04T13:57:59Z</time>
      </trkpt>
      <trkpt lat="48.62501" lon="7.1712">
        <ele>465.896118</ele>
        <time>2013-05-04T13:58:09Z</time>
      </trkpt>
      <trkpt lat="48.62508" lon="7.17113">
        <ele>463.492798</ele>
        <time>2013-05-04T13:58:20Z</time>
      </trkpt>
      <trkpt lat="48.62509" lon="7.1711">
        <ele>463.012085</ele>
        <time>2013-05-04T13:58:23Z</time>
      </trkpt>
      <trkpt lat="48.62513" lon="7.17097">
        <ele>461.089478</ele>
        <time>2013-05-04T13:58:29Z</time>
      </trkpt>
      <trkpt lat="48.62517" lon="7.17087">
        <ele>459.647583</ele>
        <time>2013-05-04T13:58:39Z</time>
      </trkpt>
      <trkpt lat="48.62521" lon="7.17077">
        <ele>458.205566</ele>
        <time>2013-05-04T13:58:50Z</time>
      </trkpt>
      <trkpt lat="48.6252" lon="7.17066">
        <ele>456.76355</ele>
        <time>2013-05-04T13:58:59Z</time>
      </trkpt>
      <trkpt lat="48.62521" lon="7.17057">
        <ele>455.802246</ele>
        <time>2013-05-04T13:59:08Z</time>
      </trkpt>
      <trkpt lat="48.62524" lon="7.17055">
        <ele>453.879639</ele>
        <time>2013-05-04T13:59:15Z</time>
      </trkpt>
      <trkpt lat="48.62524" lon="7.1705">
        <ele>453.398926</ele>
        <time>2013-05-04T13:59:18Z</time>
      </trkpt>
      <trkpt lat="48.62529" lon="7.17052">
        <ele>452.918213</ele>
        <time>2013-05-04T13:59:30Z</time>
      </trkpt>
      <trkpt lat="48.62533" lon="7.17061">
        <ele>452.918213</ele>
        <time>2013-05-04T13:59:41Z</time>
      </trkpt>
      <trkpt lat="48.62535" lon="7.17062">
        <ele>451.957031</ele>
        <time>2013-05-04T13:59:46Z</time>
      </trkpt>
      <trkpt lat="48.62545" lon="7.17047">
        <ele>449.553711</ele>
        <time>2013-05-04T13:59:58Z</time>
      </trkpt>
      <trkpt lat="48.62547" lon="7.17044">
        <ele>449.072998</ele>
        <time>2013-05-04T14:00:00Z</time>
      </trkpt>
      <trkpt lat="48.62552" lon="7.1703">
        <ele>445.708374</ele>
        <time>2013-05-04T14:00:12Z</time>
      </trkpt>
      <trkpt lat="48.62552" lon="7.17029">
        <ele>445.708374</ele>
        <time>2013-05-04T14:00:14Z</time>
      </trkpt>
      <trkpt lat="48.62568" lon="7.17002">
        <ele>444.74707</ele>
        <time>2013-05-04T14:00:26Z</time>
      </trkpt>
      <trkpt lat="48.6259" lon="7.16969">
        <ele>441.382446</ele>
        <time>2013-05-04T14:00:40Z</time>
      </trkpt>
      <trkpt lat="48.62616" lon="7.16929">
        <ele>439.459717</ele>
        <time>2013-05-04T14:01:00Z</time>
      </trkpt>
      <trkpt lat="48.62617" lon="7.16924">
        <ele>439.94043</ele>
        <time>2013-05-04T14:01:06Z</time>
      </trkpt>
      <trkpt lat="48.62625" lon="7.16905">
        <ele>436.575928</ele>
        <time>2013-05-04T14:01:19Z</time>
      </trkpt>
      <trkpt lat="48.62626" lon="7.16904">
        <ele>436.575928</ele>
        <time>2013-05-04T14:01:22Z</time>
      </trkpt>
      <trkpt lat="48.62645" lon="7.16873">
        <ele>432.730713</ele>
        <time>2013-05-04T14:01:35Z</time>
      </trkpt>
      <trkpt lat="48.62649" lon="7.16867">
        <ele>431.288574</ele>
        <time>2013-05-04T14:01:41Z</time>
      </trkpt>
      <trkpt lat="48.62662" lon="7.16847">
        <ele>426.001343</ele>
        <time>2013-05-04T14:01:52Z</time>
      </trkpt>
      <trkpt lat="48.62657" lon="7.1681">
        <ele>422.636719</ele>
        <time>2013-05-04T14:02:04Z</time>
      </trkpt>
      <trkpt lat="48.62626" lon="7.16739">
        <ele>415.907471</ele>
        <time>2013-05-04T14:02:20Z</time>
      </trkpt>
      <trkpt lat="48.62622" lon="7.1673">
        <ele>414.946167</ele>
        <time>2013-05-04T14:02:27Z</time>
      </trkpt>
      <trkpt lat="48.6261" lon="7.1671">
        <ele>413.984863</ele>
        <time>2013-05-04T14:02:52Z</time>
      </trkpt>
      <trkpt lat="48.6248" lon="7.16633">
        <ele>412.542847</ele>
        <time>2013-05-04T14:03:57Z</time>
      </trkpt>
      <trkpt lat="48.62637" lon="7.16488">
        <ele>403.891113</ele>
        <time>2013-05-04T14:05:17Z</time>
      </trkpt>
      <trkpt lat="48.62679" lon="7.16546">
        <ele>396.681152</ele>
        <time>2013-05-04T14:06:00Z</time>
      </trkpt>
      <trkpt lat="48.62694" lon="7.16545">
        <ele>397.161743</ele>
        <time>2013-05-04T14:06:09Z</time>
      </trkpt>
      <trkpt lat="48.62718" lon="7.16512">
        <ele>396.681152</ele>
        <time>2013-05-04T14:06:27Z</time>
      </trkpt>
      <trkpt lat="48.62742" lon="7.16402">
        <ele>397.161743</ele>
        <time>2013-05-04T14:07:05Z</time>
      </trkpt>
      <trkpt lat="48.62861" lon="7.16457">
        <ele>398.123169</ele>
        <time>2013-05-04T14:07:40Z</time>
      </trkpt>
      <trkpt lat="48.62877" lon="7.16446">
        <ele>398.60376</ele>
        <time>2013-05-04T14:07:43Z</time>
      </trkpt>
      <trkpt lat="48.62893" lon="7.1645">
        <ele>398.123169</ele>
        <time>2013-05-04T14:07:50Z</time>
      </trkpt>
      <trkpt lat="48.62907" lon="7.16439">
        <ele>399.084351</ele>
        <time>2013-05-04T14:07:59Z</time>
      </trkpt>
      <trkpt lat="48.62957" lon="7.16289">
        <ele>400.526489</ele>
        <time>2013-05-04T14:08:50Z</time>
      </trkpt>
      <trkpt lat="48.6303" lon="7.16319">
        <ele>406.294312</ele>
        <time>2013-05-04T14:09:21Z</time>
      </trkpt>
      <trkpt lat="48.63071" lon="7.16322">
        <ele>407.736328</ele>
        <time>2013-05-04T14:09:37Z</time>
      </trkpt>
      <trkpt lat="48.63276" lon="7.16121">
        <ele>408.217041</ele>
        <time>2013-05-04T14:11:01Z</time>
      </trkpt>
      <trkpt lat="48.63274" lon="7.15952">
        <ele>408.217041</ele>
        <time>2013-05-04T14:11:19Z</time>
      </trkpt>
      <trkpt lat="48.63332" lon="7.15843">
        <ele>407.736328</ele>
        <time>2013-05-04T14:12:15Z</time>
      </trkpt>
      <trkpt lat="48.63349" lon="7.15845">
        <ele>409.178345</ele>
        <time>2013-05-04T14:12:19Z</time>
      </trkpt>
      <trkpt lat="48.63431" lon="7.15794">
        <ele>412.062256</ele>
        <time>2013-05-04T14:12:52Z</time>
      </trkpt>
      <trkpt lat="48.63439" lon="7.15787">
        <ele>412.062256</ele>
        <time>2013-05-04T14:12:56Z</time>
      </trkpt>
      <trkpt lat="48.63469" lon="7.15753">
        <ele>413.02356</ele>
        <time>2013-05-04T14:13:16Z</time>
      </trkpt>
      <trkpt lat="48.63575" lon="7.15706">
        <ele>414.465454</ele>
        <time>2013-05-04T14:13:36Z</time>
      </trkpt>
      <trkpt lat="48.63556" lon="7.15657">
        <ele>420.233398</ele>
        <time>2013-05-04T14:14:04Z</time>
      </trkpt>
      <trkpt lat="48.63557" lon="7.15647">
        <ele>421.675415</ele>
        <time>2013-05-04T14:14:12Z</time>
      </trkpt>
      <trkpt lat="48.63549" lon="7.15618">
        <ele>425.520752</ele>
        <time>2013-05-04T14:14:28Z</time>
      </trkpt>
      <trkpt lat="48.63544" lon="7.15596">
        <ele>427.443359</ele>
        <time>2013-05-04T14:14:44Z</time>
      </trkpt>
      <trkpt lat="48.63532" lon="7.15525">
        <ele>433.211304</ele>
        <time>2013-05-04T14:15:16Z</time>
      </trkpt>
      <trkpt lat="48.6353" lon="7.15485">
        <ele>439.459717</ele>
        <time>2013-05-04T14:15:33Z</time>
      </trkpt>
      <trkpt lat="48.63529" lon="7.15476">
        <ele>440.421265</ele>
        <time>2013-05-04T14:15:43Z</time>
      </trkpt>
      <trkpt lat="48.63518" lon="7.15412">
        <ele>453.398926</ele>
        <time>2013-05-04T14:16:26Z</time>
      </trkpt>
      <trkpt lat="48.63528" lon="7.15339">
        <ele>463.973389</ele>
        <time>2013-05-04T14:17:01Z</time>
      </trkpt>
      <trkpt lat="48.63553" lon="7.15271">
        <ele>463.492798</ele>
        <time>2013-05-04T14:17:23Z</time>
      </trkpt>
      <trkpt lat="48.63556" lon="7.15262">
        <ele>463.012085</ele>
        <time>2013-05-04T14:17:26Z</time>
      </trkpt>
      <trkpt lat="48.63565" lon="7.15244">
        <ele>461.57019</ele>
        <time>2013-05-04T14:17:33Z</time>
      </trkpt>
      <trkpt lat="48.63567" lon="7.15238">
        <ele>461.57019</ele>
        <time>2013-05-04T14:17:35Z</time>
      </trkpt>
      <trkpt lat="48.63594" lon="7.15199">
        <ele>462.050781</ele>
        <time>2013-05-04T14:17:48Z</time>
      </trkpt>
      <trkpt lat="48.63602" lon="7.15183">
        <ele>463.012085</ele>
        <time>2013-05-04T14:17:54Z</time>
      </trkpt>
      <trkpt lat="48.63588" lon="7.1516">
        <ele>467.818726</ele>
        <time>2013-05-04T14:18:05Z</time>
      </trkpt>
      <trkpt lat="48.63566" lon="7.15139">
        <ele>471.18335</ele>
        <time>2013-05-04T14:18:21Z</time>
      </trkpt>
      <trkpt lat="48.63549" lon="7.15111">
        <ele>472.625366</ele>
        <time>2013-05-04T14:18:35Z</time>
      </trkpt>
      <trkpt lat="48.6354" lon="7.15077">
        <ele>471.66394</ele>
        <time>2013-05-04T14:18:48Z</time>
      </trkpt>
      <trkpt lat="48.63534" lon="7.14929">
        <ele>471.18335</ele>
        <time>2013-05-04T14:19:28Z</time>
      </trkpt>
      <trkpt lat="48.63535" lon="7.14561">
        <ele>469.741333</ele>
        <time>2013-05-04T14:20:30Z</time>
      </trkpt>
      <trkpt lat="48.63533" lon="7.14531">
        <ele>458.205566</ele>
        <time>2013-05-04T14:20:56Z</time>
      </trkpt>
      <trkpt lat="48.63519" lon="7.14509">
        <ele>454.84082</ele>
        <time>2013-05-04T14:21:08Z</time>
      </trkpt>
      <trkpt lat="48.6352" lon="7.1451">
        <ele>455.802246</ele>
        <time>2013-05-04T14:21:26Z</time>
      </trkpt>
      <trkpt lat="48.63528" lon="7.14514">
        <ele>450.515015</ele>
        <time>2013-05-04T14:21:43Z</time>
      </trkpt>
      <trkpt lat="48.63537" lon="7.14527">
        <ele>450.034424</ele>
        <time>2013-05-04T14:21:50Z</time>
      </trkpt>
      <trkpt lat="48.63539" lon="7.14535">
        <ele>450.515015</ele>
        <time>2013-05-04T14:21:52Z</time>
      </trkpt>
      <trkpt lat="48.63551" lon="7.146">
        <ele>452.437622</ele>
        <time>2013-05-04T14:22:05Z</time>
      </trkpt>
      <trkpt lat="48.63548" lon="7.14671">
        <ele>453.398926</ele>
        <time>2013-05-04T14:22:17Z</time>
      </trkpt>
      <trkpt lat="48.6355" lon="7.14755">
        <ele>452.437622</ele>
        <time>2013-05-04T14:22:34Z</time>
      </trkpt>
      <trkpt lat="48.6355" lon="7.14838">
        <ele>448.111816</ele>
        <time>2013-05-04T14:22:53Z</time>
      </trkpt>
      <trkpt lat="48.63545" lon="7.14893">
        <ele>448.111816</ele>
        <time>2013-05-04T14:23:05Z</time>
      </trkpt>
      <trkpt lat="48.63534" lon="7.14982">
        <ele>444.74707</ele>
        <time>2013-05-04T14:23:29Z</time>
      </trkpt>
      <trkpt lat="48.63538" lon="7.15086">
        <ele>450.034424</ele>
        <time>2013-05-04T14:24:58Z</time>
      </trkpt>
      <trkpt lat="48.63546" lon="7.15085">
        <ele>454.360229</ele>
        <time>2013-05-04T14:25:08Z</time>
      </trkpt>
      <trkpt lat="48.63561" lon="7.15052">
        <ele>456.282959</ele>
        <time>2013-05-04T14:25:22Z</time>
      </trkpt>
      <trkpt lat="48.63582" lon="7.14969">
        <ele>461.57019</ele>
        <time>2013-05-04T14:25:35Z</time>
      </trkpt>
      <trkpt lat="48.63628" lon="7.14756">
        <ele>463.012085</ele>
        <time>2013-05-04T14:26:07Z</time>
      </trkpt>
      <trkpt lat="48.63631" lon="7.1475">
        <ele>463.492798</ele>
        <time>2013-05-04T14:26:08Z</time>
      </trkpt>
      <trkpt lat="48.63703" lon="7.14704">
        <ele>464.934814</ele>
        <time>2013-05-04T14:26:27Z</time>
      </trkpt>
      <trkpt lat="48.63778" lon="7.14706">
        <ele>463.973389</ele>
        <time>2013-05-04T14:26:41Z</time>
      </trkpt>
      <trkpt lat="48.63785" lon="7.14718">
        <ele>463.973389</ele>
        <time>2013-05-04T14:26:44Z</time>
      </trkpt>
      <trkpt lat="48.6382" lon="7.14741">
        <ele>463.012085</ele>
        <time>2013-05-04T14:26:51Z</time>
      </trkpt>
      <trkpt lat="48.63862" lon="7.14762">
        <ele>462.050781</ele>
        <time>2013-05-04T14:27:02Z</time>
      </trkpt>
      <trkpt lat="48.63873" lon="7.1474">
        <ele>459.647583</ele>
        <time>2013-05-04T14:27:07Z</time>
      </trkpt>
      <trkpt lat="48.63887" lon="7.14721">
        <ele>456.76355</ele>
        <time>2013-05-04T14:27:12Z</time>
      </trkpt>
      <trkpt lat="48.63899" lon="7.14745">
        <ele>454.360229</ele>
        <time>2013-05-04T14:27:18Z</time>
      </trkpt>
      <trkpt lat="48.63898" lon="7.14751">
        <ele>453.879639</ele>
        <time>2013-05-04T14:27:19Z</time>
      </trkpt>
      <trkpt lat="48.63903" lon="7.14783">
        <ele>450.995605</ele>
        <time>2013-05-04T14:27:26Z</time>
      </trkpt>
      <trkpt lat="48.63912" lon="7.14785">
        <ele>449.553711</ele>
        <time>2013-05-04T14:27:29Z</time>
      </trkpt>
      <trkpt lat="48.63982" lon="7.14758">
        <ele>446.189087</ele>
        <time>2013-05-04T14:27:42Z</time>
      </trkpt>
      <trkpt lat="48.6405" lon="7.14718">
        <ele>445.227661</ele>
        <time>2013-05-04T14:27:58Z</time>
      </trkpt>
      <trkpt lat="48.64057" lon="7.14714">
        <ele>445.227661</ele>
        <time>2013-05-04T14:28:01Z</time>
      </trkpt>
      <trkpt lat="48.6414" lon="7.14702">
        <ele>443.305054</ele>
        <time>2013-05-04T14:28:17Z</time>
      </trkpt>
      <trkpt lat="48.64196" lon="7.14685">
        <ele>442.824463</ele>
        <time>2013-05-04T14:28:30Z</time>
      </trkpt>
      <trkpt lat="48.64196" lon="7.14696">
        <ele>444.266479</ele>
        <time>2013-05-04T14:28:32Z</time>
      </trkpt>
      <trkpt lat="48.64212" lon="7.14696">
        <ele>448.592407</ele>
        <time>2013-05-04T14:28:43Z</time>
      </trkpt>
      <trkpt lat="48.64313" lon="7.14526">
        <ele>444.266479</ele>
        <time>2013-05-04T14:29:45Z</time>
      </trkpt>
      <trkpt lat="48.64307" lon="7.14571">
        <ele>444.266479</ele>
        <time>2013-05-04T14:29:55Z</time>
      </trkpt>
      <trkpt lat="48.64277" lon="7.14615">
        <ele>439.459717</ele>
        <time>2013-05-04T14:30:18Z</time>
      </trkpt>
      <trkpt lat="48.64291" lon="7.14623">
        <ele>438.017822</ele>
        <time>2013-05-04T14:30:56Z</time>
      </trkpt>
      <trkpt lat="48.64567" lon="7.14673">
        <ele>437.056519</ele>
        <time>2013-05-04T14:32:27Z</time>
      </trkpt>
      <trkpt lat="48.64589" lon="7.14698">
        <ele>434.172607</ele>
        <time>2013-05-04T14:32:36Z</time>
      </trkpt>
      <trkpt lat="48.64646" lon="7.14804">
        <ele>426.001343</ele>
        <time>2013-05-04T14:32:47Z</time>
      </trkpt>
      <trkpt lat="48.64664" lon="7.14831">
        <ele>353.421875</ele>
        <time>2013-05-04T14:32:56Z</time>
      </trkpt>
      <trkpt lat="48.64705" lon="7.14847">
        <ele>347.653931</ele>
        <time>2013-05-04T14:33:09Z</time>
      </trkpt>
      <trkpt lat="48.6473" lon="7.14865">
        <ele>346.692627</ele>
        <time>2013-05-04T14:33:18Z</time>
      </trkpt>
      <trkpt lat="48.64733" lon="7.14866">
        <ele>346.212036</ele>
        <time>2013-05-04T14:33:19Z</time>
      </trkpt>
      <trkpt lat="48.6477" lon="7.14849">
        <ele>342.366699</ele>
        <time>2013-05-04T14:33:26Z</time>
      </trkpt>
      <trkpt lat="48.64774" lon="7.14841">
        <ele>341.885986</ele>
        <time>2013-05-04T14:33:27Z</time>
      </trkpt>
      <trkpt lat="48.64808" lon="7.14785">
        <ele>338.521484</ele>
        <time>2013-05-04T14:33:34Z</time>
      </trkpt>
      <trkpt lat="48.64833" lon="7.14776">
        <ele>337.079468</ele>
        <time>2013-05-04T14:33:40Z</time>
      </trkpt>
      <trkpt lat="48.64857" lon="7.14798">
        <ele>334.676147</ele>
        <time>2013-05-04T14:33:46Z</time>
      </trkpt>
      <trkpt lat="48.64914" lon="7.14871">
        <ele>333.234131</ele>
        <time>2013-05-04T14:34:02Z</time>
      </trkpt>
      <trkpt lat="48.64975" lon="7.1491">
        <ele>332.75354</ele>
        <time>2013-05-04T14:34:17Z</time>
      </trkpt>
      <trkpt lat="48.64999" lon="7.14915">
        <ele>331.792114</ele>
        <time>2013-05-04T14:34:22Z</time>
      </trkpt>
      <trkpt lat="48.65063" lon="7.14903">
        <ele>328.908325</ele>
        <time>2013-05-04T14:34:33Z</time>
      </trkpt>
      <trkpt lat="48.65133" lon="7.14878">
        <ele>330.35022</ele>
        <time>2013-05-04T14:34:45Z</time>
      </trkpt>
      <trkpt lat="48.65147" lon="7.14875">
        <ele>329.388916</ele>
        <time>2013-05-04T14:34:48Z</time>
      </trkpt>
      <trkpt lat="48.65198" lon="7.14883">
        <ele>326.504883</ele>
        <time>2013-05-04T14:35:00Z</time>
      </trkpt>
      <trkpt lat="48.65219" lon="7.14911">
        <ele>323.620972</ele>
        <time>2013-05-04T14:35:07Z</time>
      </trkpt>
      <trkpt lat="48.65221" lon="7.14918">
        <ele>323.140381</ele>
        <time>2013-05-04T14:35:09Z</time>
      </trkpt>
      <trkpt lat="48.65235" lon="7.14989">
        <ele>324.101562</ele>
        <time>2013-05-04T14:35:22Z</time>
      </trkpt>
      <trkpt lat="48.65244" lon="7.15021">
        <ele>323.140381</ele>
        <time>2013-05-04T14:35:31Z</time>
      </trkpt>
      <trkpt lat="48.65286" lon="7.15035">
        <ele>321.698364</ele>
        <time>2013-05-04T14:35:44Z</time>
      </trkpt>
      <trkpt lat="48.65339" lon="7.15038">
        <ele>321.217773</ele>
        <time>2013-05-04T14:35:55Z</time>
      </trkpt>
      <trkpt lat="48.65354" lon="7.15015">
        <ele>321.217773</ele>
        <time>2013-05-04T14:36:00Z</time>
      </trkpt>
      <trkpt lat="48.65376" lon="7.14948">
        <ele>321.698364</ele>
        <time>2013-05-04T14:36:10Z</time>
      </trkpt>
      <trkpt lat="48.65398" lon="7.1491">
        <ele>321.698364</ele>
        <time>2013-05-04T14:36:18Z</time>
      </trkpt>
      <trkpt lat="48.65398" lon="7.14892">
        <ele>321.698364</ele>
        <time>2013-05-04T14:36:21Z</time>
      </trkpt>
      <trkpt lat="48.6539" lon="7.14792">
        <ele>322.178955</ele>
        <time>2013-05-04T14:36:37Z</time>
      </trkpt>
      <trkpt lat="48.65373" lon="7.14752">
        <ele>323.140381</ele>
        <time>2013-05-04T14:36:46Z</time>
      </trkpt>
      <trkpt lat="48.65343" lon="7.14759">
        <ele>326.504883</ele>
        <time>2013-05-04T14:36:55Z</time>
      </trkpt>
      <trkpt lat="48.6534" lon="7.1476">
        <ele>326.504883</ele>
        <time>2013-05-04T14:36:56Z</time>
      </trkpt>
      <trkpt lat="48.65322" lon="7.14714">
        <ele>328.427612</ele>
        <time>2013-05-04T14:37:11Z</time>
      </trkpt>
      <trkpt lat="48.65321" lon="7.14669">
        <ele>331.311523</ele>
        <time>2013-05-04T14:37:24Z</time>
      </trkpt>
      <trkpt lat="48.65313" lon="7.1463">
        <ele>333.714722</ele>
        <time>2013-05-04T14:37:36Z</time>
      </trkpt>
      <trkpt lat="48.65294" lon="7.14593">
        <ele>336.598877</ele>
        <time>2013-05-04T14:37:51Z</time>
      </trkpt>
      <trkpt lat="48.65283" lon="7.14553">
        <ele>338.521484</ele>
        <time>2013-05-04T14:38:06Z</time>
      </trkpt>
      <trkpt lat="48.65278" lon="7.14519">
        <ele>340.924683</ele>
        <time>2013-05-04T14:38:19Z</time>
      </trkpt>
      <trkpt lat="48.65271" lon="7.14471">
        <ele>346.692627</ele>
        <time>2013-05-04T14:38:37Z</time>
      </trkpt>
      <trkpt lat="48.65264" lon="7.14443">
        <ele>348.134644</ele>
        <time>2013-05-04T14:38:49Z</time>
      </trkpt>
      <trkpt lat="48.65257" lon="7.14415">
        <ele>349.095825</ele>
        <time>2013-05-04T14:39:01Z</time>
      </trkpt>
      <trkpt lat="48.65245" lon="7.14382">
        <ele>351.018433</ele>
        <time>2013-05-04T14:39:16Z</time>
      </trkpt>
      <trkpt lat="48.65231" lon="7.14352">
        <ele>355.344482</ele>
        <time>2013-05-04T14:39:31Z</time>
      </trkpt>
      <trkpt lat="48.65218" lon="7.14328">
        <ele>357.747803</ele>
        <time>2013-05-04T14:39:46Z</time>
      </trkpt>
      <trkpt lat="48.65201" lon="7.14301">
        <ele>361.112427</ele>
        <time>2013-05-04T14:40:03Z</time>
      </trkpt>
      <trkpt lat="48.65186" lon="7.14277">
        <ele>362.554321</ele>
        <time>2013-05-04T14:40:20Z</time>
      </trkpt>
      <trkpt lat="48.65174" lon="7.14257">
        <ele>365.438354</ele>
        <time>2013-05-04T14:40:34Z</time>
      </trkpt>
      <trkpt lat="48.65161" lon="7.14235">
        <ele>367.841553</ele>
        <time>2013-05-04T14:40:49Z</time>
      </trkpt>
      <trkpt lat="48.65146" lon="7.1421">
        <ele>371.68689</ele>
        <time>2013-05-04T14:41:05Z</time>
      </trkpt>
      <trkpt lat="48.65131" lon="7.14181">
        <ele>373.128906</ele>
        <time>2013-05-04T14:41:23Z</time>
      </trkpt>
      <trkpt lat="48.65091" lon="7.14105">
        <ele>376.012817</ele>
        <time>2013-05-04T14:41:57Z</time>
      </trkpt>
      <trkpt lat="48.65073" lon="7.1407">
        <ele>378.896851</ele>
        <time>2013-05-04T14:42:13Z</time>
      </trkpt>
      <trkpt lat="48.65062" lon="7.14041">
        <ele>382.742065</ele>
        <time>2013-05-04T14:42:32Z</time>
      </trkpt>
      <trkpt lat="48.65059" lon="7.14038">
        <ele>387.548584</ele>
        <time>2013-05-04T14:44:10Z</time>
      </trkpt>
      <trkpt lat="48.65048" lon="7.13996">
        <ele>388.51001</ele>
        <time>2013-05-04T14:44:24Z</time>
      </trkpt>
      <trkpt lat="48.65038" lon="7.13958">
        <ele>389.951904</ele>
        <time>2013-05-04T14:44:40Z</time>
      </trkpt>
      <trkpt lat="48.65034" lon="7.13926">
        <ele>389.951904</ele>
        <time>2013-05-04T14:44:56Z</time>
      </trkpt>
      <trkpt lat="48.65031" lon="7.13904">
        <ele>393.316528</ele>
        <time>2013-05-04T14:45:06Z</time>
      </trkpt>
      <trkpt lat="48.6504" lon="7.13877">
        <ele>393.316528</ele>
        <time>2013-05-04T14:45:20Z</time>
      </trkpt>
      <trkpt lat="48.65055" lon="7.13863">
        <ele>393.797241</ele>
        <time>2013-05-04T14:45:35Z</time>
      </trkpt>
      <trkpt lat="48.65079" lon="7.13851">
        <ele>393.797241</ele>
        <time>2013-05-04T14:45:51Z</time>
      </trkpt>
      <trkpt lat="48.65102" lon="7.13844">
        <ele>396.200562</ele>
        <time>2013-05-04T14:46:08Z</time>
      </trkpt>
      <trkpt lat="48.65128" lon="7.1384">
        <ele>401.00708</ele>
        <time>2013-05-04T14:46:25Z</time>
      </trkpt>
      <trkpt lat="48.65207" lon="7.13843">
        <ele>404.852295</ele>
        <time>2013-05-04T14:47:07Z</time>
      </trkpt>
      <trkpt lat="48.65244" lon="7.13858">
        <ele>403.891113</ele>
        <time>2013-05-04T14:47:23Z</time>
      </trkpt>
      <trkpt lat="48.65355" lon="7.13931">
        <ele>407.736328</ele>
        <time>2013-05-04T14:47:58Z</time>
      </trkpt>
      <trkpt lat="48.65377" lon="7.13926">
        <ele>408.697632</ele>
        <time>2013-05-04T14:48:04Z</time>
      </trkpt>
      <trkpt lat="48.65381" lon="7.13907">
        <ele>409.178345</ele>
        <time>2013-05-04T14:48:07Z</time>
      </trkpt>
      <trkpt lat="48.6539" lon="7.13779">
        <ele>412.062256</ele>
        <time>2013-05-04T14:48:25Z</time>
      </trkpt>
      <trkpt lat="48.65406" lon="7.13706">
        <ele>412.542847</ele>
        <time>2013-05-04T14:48:35Z</time>
      </trkpt>
      <trkpt lat="48.65444" lon="7.13648">
        <ele>412.542847</ele>
        <time>2013-05-04T14:48:45Z</time>
      </trkpt>
      <trkpt lat="48.65458" lon="7.1364">
        <ele>412.062256</ele>
        <time>2013-05-04T14:48:48Z</time>
      </trkpt>
      <trkpt lat="48.6547" lon="7.13638">
        <ele>411.581665</ele>
        <time>2013-05-04T14:48:50Z</time>
      </trkpt>
      <trkpt lat="48.6555" lon="7.13665">
        <ele>409.178345</ele>
        <time>2013-05-04T14:49:04Z</time>
      </trkpt>
      <trkpt lat="48.65612" lon="7.1369">
        <ele>411.581665</ele>
        <time>2013-05-04T14:49:16Z</time>
      </trkpt>
      <trkpt lat="48.65634" lon="7.13703">
        <ele>411.581665</ele>
        <time>2013-05-04T14:49:20Z</time>
      </trkpt>
      <trkpt lat="48.65658" lon="7.13704">
        <ele>411.100952</ele>
        <time>2013-05-04T14:49:25Z</time>
      </trkpt>
      <trkpt lat="48.65694" lon="7.1369">
        <ele>412.542847</ele>
        <time>2013-05-04T14:49:37Z</time>
      </trkpt>
      <trkpt lat="48.65722" lon="7.1367">
        <ele>413.504272</ele>
        <time>2013-05-04T14:49:50Z</time>
      </trkpt>
      <trkpt lat="48.65756" lon="7.13641">
        <ele>412.062256</ele>
        <time>2013-05-04T14:50:05Z</time>
      </trkpt>
      <trkpt lat="48.65779" lon="7.13614">
        <ele>411.100952</ele>
        <time>2013-05-04T14:50:17Z</time>
      </trkpt>
      <trkpt lat="48.65787" lon="7.13608">
        <ele>410.620239</ele>
        <time>2013-05-04T14:50:20Z</time>
      </trkpt>
      <trkpt lat="48.65786" lon="7.13589">
        <ele>409.659058</ele>
        <time>2013-05-04T14:50:26Z</time>
      </trkpt>
      <trkpt lat="48.65765" lon="7.13525">
        <ele>410.139648</ele>
        <time>2013-05-04T14:50:37Z</time>
      </trkpt>
      <trkpt lat="48.65738" lon="7.13441">
        <ele>407.736328</ele>
        <time>2013-05-04T14:50:49Z</time>
      </trkpt>
      <trkpt lat="48.65711" lon="7.13353">
        <ele>403.891113</ele>
        <time>2013-05-04T14:51:03Z</time>
      </trkpt>
      <trkpt lat="48.65713" lon="7.13345">
        <ele>402.929688</ele>
        <time>2013-05-04T14:51:09Z</time>
      </trkpt>
      <trkpt lat="48.65714" lon="7.13346">
        <ele>401.487793</ele>
        <time>2013-05-04T14:51:38Z</time>
      </trkpt>
      <trkpt lat="48.65733" lon="7.13332">
        <ele>400.526489</ele>
        <time>2013-05-04T14:51:45Z</time>
      </trkpt>
      <trkpt lat="48.65785" lon="7.13292">
        <ele>398.123169</ele>
        <time>2013-05-04T14:51:58Z</time>
      </trkpt>
      <trkpt lat="48.65856" lon="7.13244">
        <ele>396.681152</ele>
        <time>2013-05-04T14:52:13Z</time>
      </trkpt>
      <trkpt lat="48.65925" lon="7.13217">
        <ele>394.277954</ele>
        <time>2013-05-04T14:52:26Z</time>
      </trkpt>
      <trkpt lat="48.65999" lon="7.13201">
        <ele>392.355347</ele>
        <time>2013-05-04T14:52:40Z</time>
      </trkpt>
      <trkpt lat="48.6601" lon="7.13182">
        <ele>392.835938</ele>
        <time>2013-05-04T14:52:46Z</time>
      </trkpt>
      <trkpt lat="48.66012" lon="7.1318">
        <ele>393.316528</ele>
        <time>2013-05-04T14:52:48Z</time>
      </trkpt>
      <trkpt lat="48.66021" lon="7.13148">
        <ele>393.797241</ele>
        <time>2013-05-04T14:52:58Z</time>
      </trkpt>
      <trkpt lat="48.66019" lon="7.13088">
        <ele>396.681152</ele>
        <time>2013-05-04T14:53:11Z</time>
      </trkpt>
      <trkpt lat="48.66023" lon="7.12987">
        <ele>397.161743</ele>
        <time>2013-05-04T14:53:30Z</time>
      </trkpt>
      <trkpt lat="48.66052" lon="7.12914">
        <ele>397.161743</ele>
        <time>2013-05-04T14:53:43Z</time>
      </trkpt>
      <trkpt lat="48.66096" lon="7.1283">
        <ele>395.239136</ele>
        <time>2013-05-04T14:53:58Z</time>
      </trkpt>
      <trkpt lat="48.66113" lon="7.12814">
        <ele>393.797241</ele>
        <time>2013-05-04T14:54:02Z</time>
      </trkpt>
      <trkpt lat="48.6615" lon="7.12803">
        <ele>390.913208</ele>
        <time>2013-05-04T14:54:10Z</time>
      </trkpt>
      <trkpt lat="48.66177" lon="7.12797">
        <ele>388.990601</ele>
        <time>2013-05-04T14:54:15Z</time>
      </trkpt>
      <trkpt lat="48.66275" lon="7.1294">
        <ele>385.625977</ele>
        <time>2013-05-04T14:54:43Z</time>
      </trkpt>
      <trkpt lat="48.66292" lon="7.12965">
        <ele>385.145386</ele>
        <time>2013-05-04T14:54:47Z</time>
      </trkpt>
      <trkpt lat="48.66562" lon="7.12978">
        <ele>386.587402</ele>
        <time>2013-05-04T14:55:41Z</time>
      </trkpt>
      <trkpt lat="48.66586" lon="7.12956">
        <ele>388.51001</ele>
        <time>2013-05-04T14:55:53Z</time>
      </trkpt>
      <trkpt lat="48.6661" lon="7.12936">
        <ele>389.951904</ele>
        <time>2013-05-04T14:56:07Z</time>
      </trkpt>
      <trkpt lat="48.66646" lon="7.12938">
        <ele>391.393799</ele>
        <time>2013-05-04T14:56:21Z</time>
      </trkpt>
      <trkpt lat="48.66663" lon="7.12949">
        <ele>391.874512</ele>
        <time>2013-05-04T14:56:29Z</time>
      </trkpt>
      <trkpt lat="48.66669" lon="7.12941">
        <ele>392.355347</ele>
        <time>2013-05-04T14:56:34Z</time>
      </trkpt>
      <trkpt lat="48.66735" lon="7.12838">
        <ele>388.029297</ele>
        <time>2013-05-04T14:56:59Z</time>
      </trkpt>
      <trkpt lat="48.66785" lon="7.12736">
        <ele>383.703247</ele>
        <time>2013-05-04T14:57:14Z</time>
      </trkpt>
      <trkpt lat="48.66829" lon="7.12647">
        <ele>381.300049</ele>
        <time>2013-05-04T14:57:26Z</time>
      </trkpt>
      <trkpt lat="48.66862" lon="7.12587">
        <ele>379.377441</ele>
        <time>2013-05-04T14:57:36Z</time>
      </trkpt>
      <trkpt lat="48.66885" lon="7.12548">
        <ele>378.896851</ele>
        <time>2013-05-04T14:57:44Z</time>
      </trkpt>
      <trkpt lat="48.66924" lon="7.12479">
        <ele>376.49353</ele>
        <time>2013-05-04T14:57:58Z</time>
      </trkpt>
      <trkpt lat="48.6696" lon="7.12445">
        <ele>374.090088</ele>
        <time>2013-05-04T14:58:11Z</time>
      </trkpt>
      <trkpt lat="48.66982" lon="7.12439">
        <ele>373.128906</ele>
        <time>2013-05-04T14:58:17Z</time>
      </trkpt>
      <trkpt lat="48.66996" lon="7.12447">
        <ele>372.648193</ele>
        <time>2013-05-04T14:58:20Z</time>
      </trkpt>
      <trkpt lat="48.67091" lon="7.12547">
        <ele>368.802979</ele>
        <time>2013-05-04T14:58:41Z</time>
      </trkpt>
      <trkpt lat="48.67143" lon="7.12602">
        <ele>366.399536</ele>
        <time>2013-05-04T14:58:53Z</time>
      </trkpt>
      <trkpt lat="48.67159" lon="7.12618">
        <ele>365.918945</ele>
        <time>2013-05-04T14:58:57Z</time>
      </trkpt>
      <trkpt lat="48.67166" lon="7.12626">
        <ele>365.918945</ele>
        <time>2013-05-04T14:58:59Z</time>
      </trkpt>
      <trkpt lat="48.67178" lon="7.12636">
        <ele>365.918945</ele>
        <time>2013-05-04T14:59:02Z</time>
      </trkpt>
      <trkpt lat="48.67206" lon="7.12654">
        <ele>365.438354</ele>
        <time>2013-05-04T14:59:09Z</time>
      </trkpt>
      <trkpt lat="48.67285" lon="7.12698">
        <ele>363.515747</ele>
        <time>2013-05-04T14:59:25Z</time>
      </trkpt>
      <trkpt lat="48.6735" lon="7.12731">
        <ele>361.59314</ele>
        <time>2013-05-04T14:59:38Z</time>
      </trkpt>
      <trkpt lat="48.67356" lon="7.12725">
        <ele>361.112427</ele>
        <time>2013-05-04T14:59:42Z</time>
      </trkpt>
      <trkpt lat="48.67385" lon="7.12715">
        <ele>358.228394</ele>
        <time>2013-05-04T14:59:53Z</time>
      </trkpt>
      <trkpt lat="48.6746" lon="7.12688">
        <ele>352.460571</ele>
        <time>2013-05-04T15:00:28Z</time>
      </trkpt>
      <trkpt lat="48.67486" lon="7.12675">
        <ele>346.212036</ele>
        <time>2013-05-04T15:00:46Z</time>
      </trkpt>
      <trkpt lat="48.67506" lon="7.12685">
        <ele>342.366699</ele>
        <time>2013-05-04T15:00:58Z</time>
      </trkpt>
      <trkpt lat="48.67531" lon="7.12727">
        <ele>342.366699</ele>
        <time>2013-05-04T15:01:22Z</time>
      </trkpt>
      <trkpt lat="48.67507" lon="7.12814">
        <ele>337.560059</ele>
        <time>2013-05-04T15:01:48Z</time>
      </trkpt>
      <trkpt lat="48.67499" lon="7.12862">
        <ele>325.062988</ele>
        <time>2013-05-04T15:02:35Z</time>
      </trkpt>
      <trkpt lat="48.67502" lon="7.1288">
        <ele>317.853027</ele>
        <time>2013-05-04T15:03:13Z</time>
      </trkpt>
      <trkpt lat="48.67509" lon="7.12887">
        <ele>316.411011</ele>
        <time>2013-05-04T15:03:32Z</time>
      </trkpt>
      <trkpt lat="48.67513" lon="7.12885">
        <ele>314.969116</ele>
        <time>2013-05-04T15:03:38Z</time>
      </trkpt>
      <trkpt lat="48.67525" lon="7.12876">
        <ele>312.565796</ele>
        <time>2013-05-04T15:03:49Z</time>
      </trkpt>
      <trkpt lat="48.67534" lon="7.12865">
        <ele>310.162476</ele>
        <time>2013-05-04T15:04:02Z</time>
      </trkpt>
      <trkpt lat="48.67537" lon="7.12853">
        <ele>309.201172</ele>
        <time>2013-05-04T15:04:12Z</time>
      </trkpt>
      <trkpt lat="48.67539" lon="7.12849">
        <ele>308.720459</ele>
        <time>2013-05-04T15:04:15Z</time>
      </trkpt>
      <trkpt lat="48.67561" lon="7.12828">
        <ele>306.317261</ele>
        <time>2013-05-04T15:04:31Z</time>
      </trkpt>
      <trkpt lat="48.67598" lon="7.12762">
        <ele>303.91394</ele>
        <time>2013-05-04T15:05:02Z</time>
      </trkpt>
      <trkpt lat="48.67618" lon="7.12725">
        <ele>303.433228</ele>
        <time>2013-05-04T15:05:13Z</time>
      </trkpt>
      <trkpt lat="48.6762" lon="7.12727">
        <ele>303.91394</ele>
        <time>2013-05-04T15:05:18Z</time>
      </trkpt>
      <trkpt lat="48.6762" lon="7.12728">
        <ele>301.991333</ele>
        <time>2013-05-04T15:05:24Z</time>
      </trkpt>
      <trkpt lat="48.67605" lon="7.12757">
        <ele>300.068726</ele>
        <time>2013-05-04T15:05:34Z</time>
      </trkpt>
      <trkpt lat="48.67567" lon="7.12861">
        <ele>297.665405</ele>
        <time>2013-05-04T15:05:50Z</time>
      </trkpt>
      <trkpt lat="48.67512" lon="7.12987">
        <ele>297.184692</ele>
        <time>2013-05-04T15:06:09Z</time>
      </trkpt>
      <trkpt lat="48.67447" lon="7.13115">
        <ele>297.184692</ele>
        <time>2013-05-04T15:06:31Z</time>
      </trkpt>
      <trkpt lat="48.67443" lon="7.13331">
        <ele>298.626709</ele>
        <time>2013-05-04T15:07:04Z</time>
      </trkpt>
      <trkpt lat="48.67429" lon="7.13384">
        <ele>297.665405</ele>
        <time>2013-05-04T15:07:19Z</time>
      </trkpt>
      <trkpt lat="48.67411" lon="7.13439">
        <ele>299.588013</ele>
        <time>2013-05-04T15:07:35Z</time>
      </trkpt>
      <trkpt lat="48.67398" lon="7.13456">
        <ele>301.51062</ele>
        <time>2013-05-04T15:07:44Z</time>
      </trkpt>
      <trkpt lat="48.67376" lon="7.13493">
        <ele>305.83667</ele>
        <time>2013-05-04T15:08:01Z</time>
      </trkpt>
      <trkpt lat="48.67347" lon="7.13526">
        <ele>308.720459</ele>
        <time>2013-05-04T15:08:17Z</time>
      </trkpt>
      <trkpt lat="48.67305" lon="7.13581">
        <ele>313.046509</ele>
        <time>2013-05-04T15:08:39Z</time>
      </trkpt>
      <trkpt lat="48.67285" lon="7.13631">
        <ele>315.449829</ele>
        <time>2013-05-04T15:08:53Z</time>
      </trkpt>
      <trkpt lat="48.67258" lon="7.13681">
        <ele>317.853027</ele>
        <time>2013-05-04T15:09:08Z</time>
      </trkpt>
      <trkpt lat="48.67225" lon="7.13733">
        <ele>319.295044</ele>
        <time>2013-05-04T15:09:26Z</time>
      </trkpt>
      <trkpt lat="48.67013" lon="7.14089">
        <ele>319.295044</ele>
        <time>2013-05-04T15:11:06Z</time>
      </trkpt>
      <trkpt lat="48.66991" lon="7.14102">
        <ele>319.295044</ele>
        <time>2013-05-04T15:11:10Z</time>
      </trkpt>
      <trkpt lat="48.6699" lon="7.14191">
        <ele>318.814331</ele>
        <time>2013-05-04T15:11:16Z</time>
      </trkpt>
      <trkpt lat="48.66986" lon="7.1421">
        <ele>318.333618</ele>
        <time>2013-05-04T15:11:20Z</time>
      </trkpt>
      <trkpt lat="48.66986" lon="7.14213">
        <ele>317.853027</ele>
        <time>2013-05-04T15:11:22Z</time>
      </trkpt>
      <trkpt lat="48.66993" lon="7.1421">
        <ele>316.891724</ele>
        <time>2013-05-04T15:11:25Z</time>
      </trkpt>
      <trkpt lat="48.67062" lon="7.14159">
        <ele>312.565796</ele>
        <time>2013-05-04T15:11:42Z</time>
      </trkpt>
      <trkpt lat="48.67128" lon="7.14119">
        <ele>311.123779</ele>
        <time>2013-05-04T15:11:54Z</time>
      </trkpt>
      <trkpt lat="48.67185" lon="7.14074">
        <ele>306.797852</ele>
        <time>2013-05-04T15:12:03Z</time>
      </trkpt>
      <trkpt lat="48.67214" lon="7.14066">
        <ele>304.875244</ele>
        <time>2013-05-04T15:12:07Z</time>
      </trkpt>
      <trkpt lat="48.67263" lon="7.14069">
        <ele>302.471924</ele>
        <time>2013-05-04T15:12:14Z</time>
      </trkpt>
      <trkpt lat="48.67292" lon="7.14049">
        <ele>302.471924</ele>
        <time>2013-05-04T15:12:19Z</time>
      </trkpt>
      <trkpt lat="48.67344" lon="7.13979">
        <ele>304.394653</ele>
        <time>2013-05-04T15:12:31Z</time>
      </trkpt>
      <trkpt lat="48.67356" lon="7.13966">
        <ele>304.394653</ele>
        <time>2013-05-04T15:12:34Z</time>
      </trkpt>
      <trkpt lat="48.6741" lon="7.1394">
        <ele>306.317261</ele>
        <time>2013-05-04T15:12:47Z</time>
      </trkpt>
      <trkpt lat="48.67425" lon="7.13936">
        <ele>306.317261</ele>
        <time>2013-05-04T15:12:51Z</time>
      </trkpt>
      <trkpt lat="48.67433" lon="7.13959">
        <ele>307.759277</ele>
        <time>2013-05-04T15:12:57Z</time>
      </trkpt>
      <trkpt lat="48.67431" lon="7.13976">
        <ele>308.239868</ele>
        <time>2013-05-04T15:13:01Z</time>
      </trkpt>
      <trkpt lat="48.67432" lon="7.13979">
        <ele>309.201172</ele>
        <time>2013-05-04T15:13:09Z</time>
      </trkpt>
      <trkpt lat="48.67433" lon="7.13979">
        <ele>308.239868</ele>
        <time>2013-05-04T15:13:30Z</time>
      </trkpt>
    </trkseg>
  </trk>
</gpx>